<?xml version="1.0" encoding="UTF-8" standalone="no" ?>
<gpx xmlns="http://www.topografix.com/GPX/1/1" xmlns:xsi="http://www.w3.org/2001/XMLSchema-instance" xsi:schemaLocation="http://www.topografix.com/GPX/1/1 http://www.topografix.com/GPX/1/1/gpx.xsd" version="1.1" creator="VisuGPX - https://www.visugpx.com">
  <metadata>
    <name>11985121-SJB- Les caillettes </name>
  </metadata>
  <trk>
    <name><![CDATA[11985121-SJB- Les caillettes ]]></name>
    <trkseg>
      <trkpt lat="47.91121" lon="1.96161">
        <ele>109</ele>
        <time>2020-09-05T12:53:22Z</time>
      </trkpt>
      <trkpt lat="47.91123" lon="1.96161">
        <ele>109</ele>
        <time>2020-09-05T12:53:22Z</time>
      </trkpt>
      <trkpt lat="47.91125" lon="1.96171">
        <ele>109</ele>
        <time>2020-09-05T12:53:24Z</time>
      </trkpt>
      <trkpt lat="47.9124" lon="1.96168">
        <ele>109</ele>
        <time>2020-09-05T12:53:51Z</time>
      </trkpt>
      <trkpt lat="47.91298" lon="1.96158">
        <ele>109</ele>
        <time>2020-09-05T12:54:05Z</time>
      </trkpt>
      <trkpt lat="47.91319" lon="1.96152">
        <ele>109</ele>
        <time>2020-09-05T12:54:10Z</time>
      </trkpt>
      <trkpt lat="47.91351" lon="1.96132">
        <ele>109</ele>
        <time>2020-09-05T12:54:18Z</time>
      </trkpt>
      <trkpt lat="47.91359" lon="1.96168">
        <ele>109</ele>
        <time>2020-09-05T12:54:24Z</time>
      </trkpt>
      <trkpt lat="47.91394" lon="1.96144">
        <ele>109</ele>
        <time>2020-09-05T12:54:33Z</time>
      </trkpt>
      <trkpt lat="47.91406" lon="1.96141">
        <ele>109</ele>
        <time>2020-09-05T12:54:35Z</time>
      </trkpt>
      <trkpt lat="47.91425" lon="1.9612">
        <ele>109</ele>
        <time>2020-09-05T12:54:41Z</time>
      </trkpt>
      <trkpt lat="47.91421" lon="1.96109">
        <ele>109</ele>
        <time>2020-09-05T12:54:43Z</time>
      </trkpt>
      <trkpt lat="47.91479" lon="1.96066">
        <ele>109</ele>
        <time>2020-09-05T12:54:58Z</time>
      </trkpt>
      <trkpt lat="47.91519" lon="1.96178">
        <ele>111</ele>
        <time>2020-09-05T12:55:18Z</time>
      </trkpt>
      <trkpt lat="47.91544" lon="1.96159">
        <ele>110</ele>
        <time>2020-09-05T12:55:24Z</time>
      </trkpt>
      <trkpt lat="47.91571" lon="1.96243">
        <ele>111</ele>
        <time>2020-09-05T12:55:39Z</time>
      </trkpt>
      <trkpt lat="47.91598" lon="1.96232">
        <ele>111</ele>
        <time>2020-09-05T12:55:46Z</time>
      </trkpt>
      <trkpt lat="47.91607" lon="1.96232">
        <ele>111</ele>
        <time>2020-09-05T12:55:48Z</time>
      </trkpt>
      <trkpt lat="47.91622" lon="1.96238">
        <ele>110</ele>
        <time>2020-09-05T12:55:51Z</time>
      </trkpt>
      <trkpt lat="47.91651" lon="1.96261">
        <ele>110</ele>
        <time>2020-09-05T12:55:59Z</time>
      </trkpt>
      <trkpt lat="47.91657" lon="1.96263">
        <ele>110</ele>
        <time>2020-09-05T12:56:00Z</time>
      </trkpt>
      <trkpt lat="47.91688" lon="1.96245">
        <ele>110</ele>
        <time>2020-09-05T12:56:08Z</time>
      </trkpt>
      <trkpt lat="47.91704" lon="1.9623">
        <ele>110</ele>
        <time>2020-09-05T12:56:13Z</time>
      </trkpt>
      <trkpt lat="47.91713" lon="1.96236">
        <ele>109</ele>
        <time>2020-09-05T12:56:15Z</time>
      </trkpt>
      <trkpt lat="47.91715" lon="1.96234">
        <ele>109</ele>
        <time>2020-09-05T12:56:15Z</time>
      </trkpt>
      <trkpt lat="47.91722" lon="1.96249">
        <ele>109</ele>
        <time>2020-09-05T12:56:18Z</time>
      </trkpt>
      <trkpt lat="47.91725" lon="1.96245">
        <ele>109</ele>
        <time>2020-09-05T12:56:19Z</time>
      </trkpt>
      <trkpt lat="47.91745" lon="1.96276">
        <ele>109</ele>
        <time>2020-09-05T12:56:26Z</time>
      </trkpt>
      <trkpt lat="47.91771" lon="1.96297">
        <ele>109</ele>
        <time>2020-09-05T12:56:33Z</time>
      </trkpt>
      <trkpt lat="47.91767" lon="1.96311">
        <ele>109</ele>
        <time>2020-09-05T12:56:35Z</time>
      </trkpt>
      <trkpt lat="47.91769" lon="1.96315">
        <ele>109</ele>
        <time>2020-09-05T12:56:36Z</time>
      </trkpt>
      <trkpt lat="47.91887" lon="1.96391">
        <ele>110</ele>
        <time>2020-09-05T12:57:06Z</time>
      </trkpt>
      <trkpt lat="47.91895" lon="1.964">
        <ele>109</ele>
        <time>2020-09-05T12:57:08Z</time>
      </trkpt>
      <trkpt lat="47.91899" lon="1.96399">
        <ele>109</ele>
        <time>2020-09-05T12:57:09Z</time>
      </trkpt>
      <trkpt lat="47.91904" lon="1.96402">
        <ele>109</ele>
        <time>2020-09-05T12:57:11Z</time>
      </trkpt>
      <trkpt lat="47.91943" lon="1.96428">
        <ele>110</ele>
        <time>2020-09-05T12:57:21Z</time>
      </trkpt>
      <trkpt lat="47.91952" lon="1.96439">
        <ele>110</ele>
        <time>2020-09-05T12:57:23Z</time>
      </trkpt>
      <trkpt lat="47.91961" lon="1.96444">
        <ele>111</ele>
        <time>2020-09-05T12:57:26Z</time>
      </trkpt>
      <trkpt lat="47.91965" lon="1.96443">
        <ele>111</ele>
        <time>2020-09-05T12:57:27Z</time>
      </trkpt>
      <trkpt lat="47.92047" lon="1.965">
        <ele>112</ele>
        <time>2020-09-05T12:57:48Z</time>
      </trkpt>
      <trkpt lat="47.92058" lon="1.9651">
        <ele>112</ele>
        <time>2020-09-05T12:57:51Z</time>
      </trkpt>
      <trkpt lat="47.92103" lon="1.96566">
        <ele>112</ele>
        <time>2020-09-05T12:58:04Z</time>
      </trkpt>
      <trkpt lat="47.92139" lon="1.96618">
        <ele>113</ele>
        <time>2020-09-05T12:58:16Z</time>
      </trkpt>
      <trkpt lat="47.92188" lon="1.96704">
        <ele>113</ele>
        <time>2020-09-05T12:58:34Z</time>
      </trkpt>
      <trkpt lat="47.92251" lon="1.96843">
        <ele>114</ele>
        <time>2020-09-05T12:59:00Z</time>
      </trkpt>
      <trkpt lat="47.92364" lon="1.9708">
        <ele>113</ele>
        <time>2020-09-05T12:59:45Z</time>
      </trkpt>
      <trkpt lat="47.92366" lon="1.97088">
        <ele>113</ele>
        <time>2020-09-05T12:59:47Z</time>
      </trkpt>
      <trkpt lat="47.92364" lon="1.97108">
        <ele>113</ele>
        <time>2020-09-05T12:59:50Z</time>
      </trkpt>
      <trkpt lat="47.92366" lon="1.97114">
        <ele>113</ele>
        <time>2020-09-05T12:59:51Z</time>
      </trkpt>
      <trkpt lat="47.9237" lon="1.9712">
        <ele>113</ele>
        <time>2020-09-05T12:59:52Z</time>
      </trkpt>
      <trkpt lat="47.92373" lon="1.97118">
        <ele>113</ele>
        <time>2020-09-05T12:59:53Z</time>
      </trkpt>
      <trkpt lat="47.92382" lon="1.9712">
        <ele>114</ele>
        <time>2020-09-05T12:59:55Z</time>
      </trkpt>
      <trkpt lat="47.92385" lon="1.97117">
        <ele>114</ele>
        <time>2020-09-05T12:59:56Z</time>
      </trkpt>
      <trkpt lat="47.92409" lon="1.97163">
        <ele>114</ele>
        <time>2020-09-05T13:00:05Z</time>
      </trkpt>
      <trkpt lat="47.92452" lon="1.97257">
        <ele>114</ele>
        <time>2020-09-05T13:00:23Z</time>
      </trkpt>
      <trkpt lat="47.92446" lon="1.9727">
        <ele>114</ele>
        <time>2020-09-05T13:00:26Z</time>
      </trkpt>
      <trkpt lat="47.92435" lon="1.97488">
        <ele>115</ele>
        <time>2020-09-05T13:01:00Z</time>
      </trkpt>
      <trkpt lat="47.92436" lon="1.97605">
        <ele>114</ele>
        <time>2020-09-05T13:01:18Z</time>
      </trkpt>
      <trkpt lat="47.9244" lon="1.97691">
        <ele>114</ele>
        <time>2020-09-05T13:01:32Z</time>
      </trkpt>
      <trkpt lat="47.92458" lon="1.97851">
        <ele>112</ele>
        <time>2020-09-05T13:01:57Z</time>
      </trkpt>
      <trkpt lat="47.9249" lon="1.98046">
        <ele>111</ele>
        <time>2020-09-05T13:02:28Z</time>
      </trkpt>
      <trkpt lat="47.92511" lon="1.98157">
        <ele>114</ele>
        <time>2020-09-05T13:02:46Z</time>
      </trkpt>
      <trkpt lat="47.92512" lon="1.98197">
        <ele>114</ele>
        <time>2020-09-05T13:02:53Z</time>
      </trkpt>
      <trkpt lat="47.92532" lon="1.98365">
        <ele>114</ele>
        <time>2020-09-05T13:03:19Z</time>
      </trkpt>
      <trkpt lat="47.92531" lon="1.98376">
        <ele>114</ele>
        <time>2020-09-05T13:03:21Z</time>
      </trkpt>
      <trkpt lat="47.92607" lon="1.9845">
        <ele>118</ele>
        <time>2020-09-05T13:03:42Z</time>
      </trkpt>
      <trkpt lat="47.92904" lon="1.98722">
        <ele>122</ele>
        <time>2020-09-05T13:05:04Z</time>
      </trkpt>
      <trkpt lat="47.93132" lon="1.98936">
        <ele>126</ele>
        <time>2020-09-05T13:06:07Z</time>
      </trkpt>
      <trkpt lat="47.9314" lon="1.98946">
        <ele>126</ele>
        <time>2020-09-05T13:06:09Z</time>
      </trkpt>
      <trkpt lat="47.93146" lon="1.98946">
        <ele>126</ele>
        <time>2020-09-05T13:06:10Z</time>
      </trkpt>
      <trkpt lat="47.93149" lon="1.98952">
        <ele>126</ele>
        <time>2020-09-05T13:06:12Z</time>
      </trkpt>
      <trkpt lat="47.93229" lon="1.9903">
        <ele>125</ele>
        <time>2020-09-05T13:06:34Z</time>
      </trkpt>
      <trkpt lat="47.93308" lon="1.99101">
        <ele>123</ele>
        <time>2020-09-05T13:06:55Z</time>
      </trkpt>
      <trkpt lat="47.93322" lon="1.99131">
        <ele>124</ele>
        <time>2020-09-05T13:07:01Z</time>
      </trkpt>
      <trkpt lat="47.93346" lon="1.99199">
        <ele>127</ele>
        <time>2020-09-05T13:07:13Z</time>
      </trkpt>
      <trkpt lat="47.93366" lon="1.9924">
        <ele>130</ele>
        <time>2020-09-05T13:07:21Z</time>
      </trkpt>
      <trkpt lat="47.9341" lon="1.99315">
        <ele>131</ele>
        <time>2020-09-05T13:07:37Z</time>
      </trkpt>
      <trkpt lat="47.93454" lon="1.99323">
        <ele>130</ele>
        <time>2020-09-05T13:07:47Z</time>
      </trkpt>
      <trkpt lat="47.93488" lon="1.99319">
        <ele>128</ele>
        <time>2020-09-05T13:07:55Z</time>
      </trkpt>
      <trkpt lat="47.93509" lon="1.99312">
        <ele>127</ele>
        <time>2020-09-05T13:08:00Z</time>
      </trkpt>
      <trkpt lat="47.93533" lon="1.99294">
        <ele>124</ele>
        <time>2020-09-05T13:08:06Z</time>
      </trkpt>
      <trkpt lat="47.9354" lon="1.99306">
        <ele>124</ele>
        <time>2020-09-05T13:08:09Z</time>
      </trkpt>
      <trkpt lat="47.93533" lon="1.99325">
        <ele>125</ele>
        <time>2020-09-05T13:08:12Z</time>
      </trkpt>
      <trkpt lat="47.93695" lon="1.99795">
        <ele>120</ele>
        <time>2020-09-05T13:09:35Z</time>
      </trkpt>
      <trkpt lat="47.93729" lon="1.9976">
        <ele>120</ele>
        <time>2020-09-05T13:09:45Z</time>
      </trkpt>
      <trkpt lat="47.93817" lon="1.99976">
        <ele>117</ele>
        <time>2020-09-05T13:10:24Z</time>
      </trkpt>
      <trkpt lat="47.94021" lon="2.00454">
        <ele>111</ele>
        <time>2020-09-05T13:11:53Z</time>
      </trkpt>
      <trkpt lat="47.94054" lon="2.00539">
        <ele>107</ele>
        <time>2020-09-05T13:12:08Z</time>
      </trkpt>
      <trkpt lat="47.94206" lon="2.00901">
        <ele>107</ele>
        <time>2020-09-05T13:13:15Z</time>
      </trkpt>
      <trkpt lat="47.94212" lon="2.00911">
        <ele>106</ele>
        <time>2020-09-05T13:13:17Z</time>
      </trkpt>
      <trkpt lat="47.94242" lon="2.0092">
        <ele>106</ele>
        <time>2020-09-05T13:13:24Z</time>
      </trkpt>
      <trkpt lat="47.94273" lon="2.00933">
        <ele>105</ele>
        <time>2020-09-05T13:13:32Z</time>
      </trkpt>
      <trkpt lat="47.94411" lon="2.00937">
        <ele>106</ele>
        <time>2020-09-05T13:14:04Z</time>
      </trkpt>
      <trkpt lat="47.94422" lon="2.00957">
        <ele>107</ele>
        <time>2020-09-05T13:14:08Z</time>
      </trkpt>
      <trkpt lat="47.94437" lon="2.00948">
        <ele>107</ele>
        <time>2020-09-05T13:14:12Z</time>
      </trkpt>
      <trkpt lat="47.94437" lon="2.00943">
        <ele>107</ele>
        <time>2020-09-05T13:14:13Z</time>
      </trkpt>
      <trkpt lat="47.94444" lon="2.0094">
        <ele>107</ele>
        <time>2020-09-05T13:14:14Z</time>
      </trkpt>
      <trkpt lat="47.94466" lon="2.00938">
        <ele>108</ele>
        <time>2020-09-05T13:14:19Z</time>
      </trkpt>
      <trkpt lat="47.94467" lon="2.00955">
        <ele>108</ele>
        <time>2020-09-05T13:14:22Z</time>
      </trkpt>
      <trkpt lat="47.94482" lon="2.00957">
        <ele>109</ele>
        <time>2020-09-05T13:14:26Z</time>
      </trkpt>
      <trkpt lat="47.94586" lon="2.00964">
        <ele>109</ele>
        <time>2020-09-05T13:14:50Z</time>
      </trkpt>
      <trkpt lat="47.9479" lon="2.00972">
        <ele>112</ele>
        <time>2020-09-05T13:15:38Z</time>
      </trkpt>
      <trkpt lat="47.94848" lon="2.00962">
        <ele>113</ele>
        <time>2020-09-05T13:15:51Z</time>
      </trkpt>
      <trkpt lat="47.94869" lon="2.00965">
        <ele>113</ele>
        <time>2020-09-05T13:15:56Z</time>
      </trkpt>
      <trkpt lat="47.94876" lon="2.0098">
        <ele>114</ele>
        <time>2020-09-05T13:15:59Z</time>
      </trkpt>
      <trkpt lat="47.9489" lon="2.00986">
        <ele>114</ele>
        <time>2020-09-05T13:16:02Z</time>
      </trkpt>
      <trkpt lat="47.94906" lon="2.00977">
        <ele>114</ele>
        <time>2020-09-05T13:16:06Z</time>
      </trkpt>
      <trkpt lat="47.94942" lon="2.01011">
        <ele>115</ele>
        <time>2020-09-05T13:16:16Z</time>
      </trkpt>
      <trkpt lat="47.94957" lon="2.0102">
        <ele>116</ele>
        <time>2020-09-05T13:16:20Z</time>
      </trkpt>
      <trkpt lat="47.94997" lon="2.01057">
        <ele>117</ele>
        <time>2020-09-05T13:16:31Z</time>
      </trkpt>
      <trkpt lat="47.95123" lon="2.01125">
        <ele>118</ele>
        <time>2020-09-05T13:17:02Z</time>
      </trkpt>
      <trkpt lat="47.95145" lon="2.01152">
        <ele>119</ele>
        <time>2020-09-05T13:17:09Z</time>
      </trkpt>
      <trkpt lat="47.95175" lon="2.01217">
        <ele>120</ele>
        <time>2020-09-05T13:17:21Z</time>
      </trkpt>
      <trkpt lat="47.95204" lon="2.01289">
        <ele>119</ele>
        <time>2020-09-05T13:17:35Z</time>
      </trkpt>
      <trkpt lat="47.95231" lon="2.01345">
        <ele>118</ele>
        <time>2020-09-05T13:17:45Z</time>
      </trkpt>
      <trkpt lat="47.9532" lon="2.01479">
        <ele>118</ele>
        <time>2020-09-05T13:18:15Z</time>
      </trkpt>
      <trkpt lat="47.95355" lon="2.01576">
        <ele>116</ele>
        <time>2020-09-05T13:18:32Z</time>
      </trkpt>
      <trkpt lat="47.95432" lon="2.01651">
        <ele>115</ele>
        <time>2020-09-05T13:18:54Z</time>
      </trkpt>
      <trkpt lat="47.95499" lon="2.01738">
        <ele>114</ele>
        <time>2020-09-05T13:19:14Z</time>
      </trkpt>
      <trkpt lat="47.95619" lon="2.01844">
        <ele>114</ele>
        <time>2020-09-05T13:19:47Z</time>
      </trkpt>
      <trkpt lat="47.9562" lon="2.0184">
        <ele>114</ele>
        <time>2020-09-05T13:19:47Z</time>
      </trkpt>
      <trkpt lat="47.95627" lon="2.01845">
        <ele>114</ele>
        <time>2020-09-05T13:19:49Z</time>
      </trkpt>
      <trkpt lat="47.95615" lon="2.01873">
        <ele>113</ele>
        <time>2020-09-05T13:19:54Z</time>
      </trkpt>
      <trkpt lat="47.95563" lon="2.01953">
        <ele>110</ele>
        <time>2020-09-05T13:20:12Z</time>
      </trkpt>
      <trkpt lat="47.95566" lon="2.01962">
        <ele>110</ele>
        <time>2020-09-05T13:20:14Z</time>
      </trkpt>
      <trkpt lat="47.95565" lon="2.01987">
        <ele>109</ele>
        <time>2020-09-05T13:20:17Z</time>
      </trkpt>
      <trkpt lat="47.95567" lon="2.02002">
        <ele>108</ele>
        <time>2020-09-05T13:20:20Z</time>
      </trkpt>
      <trkpt lat="47.95584" lon="2.02067">
        <ele>108</ele>
        <time>2020-09-05T13:20:31Z</time>
      </trkpt>
      <trkpt lat="47.95583" lon="2.02094">
        <ele>108</ele>
        <time>2020-09-05T13:20:35Z</time>
      </trkpt>
      <trkpt lat="47.95564" lon="2.0219">
        <ele>108</ele>
        <time>2020-09-05T13:20:51Z</time>
      </trkpt>
      <trkpt lat="47.95563" lon="2.02217">
        <ele>108</ele>
        <time>2020-09-05T13:20:55Z</time>
      </trkpt>
      <trkpt lat="47.95584" lon="2.02274">
        <ele>108</ele>
        <time>2020-09-05T13:21:05Z</time>
      </trkpt>
      <trkpt lat="47.9565" lon="2.0241">
        <ele>108</ele>
        <time>2020-09-05T13:21:31Z</time>
      </trkpt>
      <trkpt lat="47.95676" lon="2.0252">
        <ele>109</ele>
        <time>2020-09-05T13:21:50Z</time>
      </trkpt>
      <trkpt lat="47.95676" lon="2.0253">
        <ele>109</ele>
        <time>2020-09-05T13:21:51Z</time>
      </trkpt>
      <trkpt lat="47.95657" lon="2.02535">
        <ele>109</ele>
        <time>2020-09-05T13:21:56Z</time>
      </trkpt>
      <trkpt lat="47.95658" lon="2.02549">
        <ele>108</ele>
        <time>2020-09-05T13:21:58Z</time>
      </trkpt>
      <trkpt lat="47.95728" lon="2.02899">
        <ele>108</ele>
        <time>2020-09-05T13:22:55Z</time>
      </trkpt>
      <trkpt lat="47.95869" lon="2.03287">
        <ele>107</ele>
        <time>2020-09-05T13:24:04Z</time>
      </trkpt>
      <trkpt lat="47.95867" lon="2.03345">
        <ele>107</ele>
        <time>2020-09-05T13:24:13Z</time>
      </trkpt>
      <trkpt lat="47.95913" lon="2.03505">
        <ele>108</ele>
        <time>2020-09-05T13:24:40Z</time>
      </trkpt>
      <trkpt lat="47.95913" lon="2.03524">
        <ele>107</ele>
        <time>2020-09-05T13:24:43Z</time>
      </trkpt>
      <trkpt lat="47.95988" lon="2.03615">
        <ele>108</ele>
        <time>2020-09-05T13:25:06Z</time>
      </trkpt>
      <trkpt lat="47.95938" lon="2.0367">
        <ele>106</ele>
        <time>2020-09-05T13:25:20Z</time>
      </trkpt>
      <trkpt lat="47.95981" lon="2.03827">
        <ele>106</ele>
        <time>2020-09-05T13:25:47Z</time>
      </trkpt>
      <trkpt lat="47.96095" lon="2.04077">
        <ele>105</ele>
        <time>2020-09-05T13:26:34Z</time>
      </trkpt>
      <trkpt lat="47.96234" lon="2.04251">
        <ele>106</ele>
        <time>2020-09-05T13:27:17Z</time>
      </trkpt>
      <trkpt lat="47.96277" lon="2.04298">
        <ele>106</ele>
        <time>2020-09-05T13:27:29Z</time>
      </trkpt>
      <trkpt lat="47.96615" lon="2.04755">
        <ele>107</ele>
        <time>2020-09-05T13:29:15Z</time>
      </trkpt>
      <trkpt lat="47.96874" lon="2.05025">
        <ele>108</ele>
        <time>2020-09-05T13:30:29Z</time>
      </trkpt>
      <trkpt lat="47.97206" lon="2.05347">
        <ele>108</ele>
        <time>2020-09-05T13:32:02Z</time>
      </trkpt>
      <trkpt lat="47.9734" lon="2.05499">
        <ele>107</ele>
        <time>2020-09-05T13:32:41Z</time>
      </trkpt>
      <trkpt lat="47.97826" lon="2.06022">
        <ele>110</ele>
        <time>2020-09-05T13:35:01Z</time>
      </trkpt>
      <trkpt lat="47.97839" lon="2.06031">
        <ele>110</ele>
        <time>2020-09-05T13:35:04Z</time>
      </trkpt>
      <trkpt lat="47.98085" lon="2.06311">
        <ele>111</ele>
        <time>2020-09-05T13:36:16Z</time>
      </trkpt>
      <trkpt lat="47.98266" lon="2.06534">
        <ele>111</ele>
        <time>2020-09-05T13:37:11Z</time>
      </trkpt>
      <trkpt lat="47.9836" lon="2.06662">
        <ele>110</ele>
        <time>2020-09-05T13:37:41Z</time>
      </trkpt>
      <trkpt lat="47.98629" lon="2.06993">
        <ele>111</ele>
        <time>2020-09-05T13:39:02Z</time>
      </trkpt>
      <trkpt lat="47.98911" lon="2.07377">
        <ele>111</ele>
        <time>2020-09-05T13:40:31Z</time>
      </trkpt>
      <trkpt lat="47.98928" lon="2.07414">
        <ele>112</ele>
        <time>2020-09-05T13:40:38Z</time>
      </trkpt>
      <trkpt lat="47.98915" lon="2.07432">
        <ele>112</ele>
        <time>2020-09-05T13:40:43Z</time>
      </trkpt>
      <trkpt lat="47.98556" lon="2.08098">
        <ele>116</ele>
        <time>2020-09-05T13:42:56Z</time>
      </trkpt>
      <trkpt lat="47.9859" lon="2.08157">
        <ele>116</ele>
        <time>2020-09-05T13:43:08Z</time>
      </trkpt>
      <trkpt lat="47.99021" lon="2.08594">
        <ele>120</ele>
        <time>2020-09-05T13:45:10Z</time>
      </trkpt>
      <trkpt lat="47.99337" lon="2.09042">
        <ele>118</ele>
        <time>2020-09-05T13:46:52Z</time>
      </trkpt>
      <trkpt lat="47.99347" lon="2.09058">
        <ele>118</ele>
        <time>2020-09-05T13:46:55Z</time>
      </trkpt>
      <trkpt lat="47.99736" lon="2.09945">
        <ele>120</ele>
        <time>2020-09-05T13:49:41Z</time>
      </trkpt>
      <trkpt lat="48.00409" lon="2.10901">
        <ele>127</ele>
        <time>2020-09-05T13:53:18Z</time>
      </trkpt>
      <trkpt lat="48.00415" lon="2.10906">
        <ele>127</ele>
        <time>2020-09-05T13:53:19Z</time>
      </trkpt>
      <trkpt lat="48.00374" lon="2.11093">
        <ele>131</ele>
        <time>2020-09-05T13:53:50Z</time>
      </trkpt>
      <trkpt lat="48.00361" lon="2.11107">
        <ele>132</ele>
        <time>2020-09-05T13:53:54Z</time>
      </trkpt>
      <trkpt lat="48.00304" lon="2.11119">
        <ele>131</ele>
        <time>2020-09-05T13:54:07Z</time>
      </trkpt>
      <trkpt lat="48.00285" lon="2.1113">
        <ele>131</ele>
        <time>2020-09-05T13:54:12Z</time>
      </trkpt>
      <trkpt lat="48.00205" lon="2.11248">
        <ele>129</ele>
        <time>2020-09-05T13:54:38Z</time>
      </trkpt>
      <trkpt lat="48.00165" lon="2.11282">
        <ele>126</ele>
        <time>2020-09-05T13:54:49Z</time>
      </trkpt>
      <trkpt lat="48.00114" lon="2.11298">
        <ele>126</ele>
        <time>2020-09-05T13:55:01Z</time>
      </trkpt>
      <trkpt lat="48.00112" lon="2.11307">
        <ele>126</ele>
        <time>2020-09-05T13:55:03Z</time>
      </trkpt>
      <trkpt lat="47.99994" lon="2.11525">
        <ele>133</ele>
        <time>2020-09-05T13:55:46Z</time>
      </trkpt>
      <trkpt lat="47.99927" lon="2.11639">
        <ele>139</ele>
        <time>2020-09-05T13:56:10Z</time>
      </trkpt>
      <trkpt lat="47.99947" lon="2.11676">
        <ele>139</ele>
        <time>2020-09-05T13:56:18Z</time>
      </trkpt>
      <trkpt lat="47.99868" lon="2.11786">
        <ele>144</ele>
        <time>2020-09-05T13:56:43Z</time>
      </trkpt>
      <trkpt lat="47.99861" lon="2.11834">
        <ele>146</ele>
        <time>2020-09-05T13:56:50Z</time>
      </trkpt>
      <trkpt lat="47.99923" lon="2.12288">
        <ele>149</ele>
        <time>2020-09-05T13:58:03Z</time>
      </trkpt>
      <trkpt lat="48.00049" lon="2.13295">
        <ele>148</ele>
        <time>2020-09-05T14:00:43Z</time>
      </trkpt>
      <trkpt lat="48.0031" lon="2.13981">
        <ele>142</ele>
        <time>2020-09-05T14:02:46Z</time>
      </trkpt>
      <trkpt lat="48.00432" lon="2.14293">
        <ele>140</ele>
        <time>2020-09-05T14:03:43Z</time>
      </trkpt>
      <trkpt lat="48.00746" lon="2.1512">
        <ele>141</ele>
        <time>2020-09-05T14:06:11Z</time>
      </trkpt>
      <trkpt lat="48.01371" lon="2.16746">
        <ele>144</ele>
        <time>2020-09-05T14:11:04Z</time>
      </trkpt>
      <trkpt lat="48.01051" lon="2.17417">
        <ele>137</ele>
        <time>2020-09-05T14:13:13Z</time>
      </trkpt>
      <trkpt lat="48.01189" lon="2.17778">
        <ele>129</ele>
        <time>2020-09-05T14:14:18Z</time>
      </trkpt>
      <trkpt lat="48.00969" lon="2.17805">
        <ele>126</ele>
        <time>2020-09-05T14:15:10Z</time>
      </trkpt>
      <trkpt lat="48.01009" lon="2.18718">
        <ele>147</ele>
        <time>2020-09-05T14:17:32Z</time>
      </trkpt>
      <trkpt lat="48.01027" lon="2.1927">
        <ele>139</ele>
        <time>2020-09-05T14:18:59Z</time>
      </trkpt>
      <trkpt lat="48.00723" lon="2.19724">
        <ele>125</ele>
        <time>2020-09-05T14:20:39Z</time>
      </trkpt>
      <trkpt lat="48.00921" lon="2.19874">
        <ele>124</ele>
        <time>2020-09-05T14:21:31Z</time>
      </trkpt>
      <trkpt lat="48.00901" lon="2.19969">
        <ele>126</ele>
        <time>2020-09-05T14:21:47Z</time>
      </trkpt>
      <trkpt lat="48.00852" lon="2.20178">
        <ele>126</ele>
        <time>2020-09-05T14:22:21Z</time>
      </trkpt>
      <trkpt lat="48.00851" lon="2.20217">
        <ele>127</ele>
        <time>2020-09-05T14:22:27Z</time>
      </trkpt>
      <trkpt lat="48.00902" lon="2.21198">
        <ele>143</ele>
        <time>2020-09-05T14:25:01Z</time>
      </trkpt>
      <trkpt lat="48.00963" lon="2.22456">
        <ele>140</ele>
        <time>2020-09-05T14:28:18Z</time>
      </trkpt>
      <trkpt lat="48.01008" lon="2.23455">
        <ele>133</ele>
        <time>2020-09-05T14:30:54Z</time>
      </trkpt>
      <trkpt lat="48.01066" lon="2.244">
        <ele>131</ele>
        <time>2020-09-05T14:33:23Z</time>
      </trkpt>
      <trkpt lat="48.01105" lon="2.24448">
        <ele>131</ele>
        <time>2020-09-05T14:33:35Z</time>
      </trkpt>
      <trkpt lat="48.01087" lon="2.24666">
        <ele>133</ele>
        <time>2020-09-05T14:34:09Z</time>
      </trkpt>
      <trkpt lat="48.01068" lon="2.24797">
        <ele>134</ele>
        <time>2020-09-05T14:34:30Z</time>
      </trkpt>
      <trkpt lat="48.01067" lon="2.24891">
        <ele>133</ele>
        <time>2020-09-05T14:34:44Z</time>
      </trkpt>
      <trkpt lat="48.01056" lon="2.25042">
        <ele>126</ele>
        <time>2020-09-05T14:35:08Z</time>
      </trkpt>
      <trkpt lat="48.01063" lon="2.25076">
        <ele>126</ele>
        <time>2020-09-05T14:35:14Z</time>
      </trkpt>
      <trkpt lat="48.01092" lon="2.25104">
        <ele>126</ele>
        <time>2020-09-05T14:35:22Z</time>
      </trkpt>
      <trkpt lat="48.01134" lon="2.25117">
        <ele>126</ele>
        <time>2020-09-05T14:35:32Z</time>
      </trkpt>
      <trkpt lat="48.01139" lon="2.25124">
        <ele>126</ele>
        <time>2020-09-05T14:35:33Z</time>
      </trkpt>
      <trkpt lat="48.01234" lon="2.2535">
        <ele>130</ele>
        <time>2020-09-05T14:36:15Z</time>
      </trkpt>
      <trkpt lat="48.01295" lon="2.25475">
        <ele>134</ele>
        <time>2020-09-05T14:36:39Z</time>
      </trkpt>
      <trkpt lat="48.01394" lon="2.2571">
        <ele>140</ele>
        <time>2020-09-05T14:37:23Z</time>
      </trkpt>
      <trkpt lat="48.01467" lon="2.25859">
        <ele>141</ele>
        <time>2020-09-05T14:37:52Z</time>
      </trkpt>
      <trkpt lat="48.01511" lon="2.25975">
        <ele>141</ele>
        <time>2020-09-05T14:38:12Z</time>
      </trkpt>
      <trkpt lat="48.01843" lon="2.26494">
        <ele>148</ele>
        <time>2020-09-05T14:40:05Z</time>
      </trkpt>
      <trkpt lat="48.01306" lon="2.27135">
        <ele>134</ele>
        <time>2020-09-05T14:42:45Z</time>
      </trkpt>
      <trkpt lat="47.99317" lon="2.29545">
        <ele>155</ele>
        <time>2020-09-05T14:52:43Z</time>
      </trkpt>
      <trkpt lat="47.98668" lon="2.30308">
        <ele>158</ele>
        <time>2020-09-05T14:55:56Z</time>
      </trkpt>
      <trkpt lat="47.98835" lon="2.30276">
        <ele>172</ele>
        <time>2020-09-05T14:56:35Z</time>
      </trkpt>
      <trkpt lat="47.98823" lon="2.30283">
        <ele>172</ele>
        <time>2020-09-05T14:56:38Z</time>
      </trkpt>
      <trkpt lat="47.98835" lon="2.30273">
        <ele>172</ele>
        <time>2020-09-05T14:56:41Z</time>
      </trkpt>
      <trkpt lat="47.98839" lon="2.30273">
        <ele>172</ele>
        <time>2020-09-05T14:56:42Z</time>
      </trkpt>
      <trkpt lat="47.98848" lon="2.30259">
        <ele>171</ele>
        <time>2020-09-05T14:56:45Z</time>
      </trkpt>
      <trkpt lat="47.98856" lon="2.30256">
        <ele>170</ele>
        <time>2020-09-05T14:56:47Z</time>
      </trkpt>
      <trkpt lat="47.9886" lon="2.30251">
        <ele>170</ele>
        <time>2020-09-05T14:56:49Z</time>
      </trkpt>
      <trkpt lat="47.98858" lon="2.30248">
        <ele>170</ele>
        <time>2020-09-05T14:56:49Z</time>
      </trkpt>
      <trkpt lat="47.98855" lon="2.30248">
        <ele>170</ele>
        <time>2020-09-05T14:56:50Z</time>
      </trkpt>
      <trkpt lat="47.98854" lon="2.30239">
        <ele>169</ele>
        <time>2020-09-05T14:56:51Z</time>
      </trkpt>
      <trkpt lat="47.9885" lon="2.30237">
        <ele>169</ele>
        <time>2020-09-05T14:56:52Z</time>
      </trkpt>
      <trkpt lat="47.98835" lon="2.30241">
        <ele>171</ele>
        <time>2020-09-05T14:56:56Z</time>
      </trkpt>
      <trkpt lat="47.98835" lon="2.30238">
        <ele>171</ele>
        <time>2020-09-05T14:56:56Z</time>
      </trkpt>
      <trkpt lat="47.98825" lon="2.30243">
        <ele>171</ele>
        <time>2020-09-05T14:56:59Z</time>
      </trkpt>
      <trkpt lat="47.98797" lon="2.30199">
        <ele>168</ele>
        <time>2020-09-05T14:57:08Z</time>
      </trkpt>
      <trkpt lat="47.98781" lon="2.30213">
        <ele>169</ele>
        <time>2020-09-05T14:57:13Z</time>
      </trkpt>
      <trkpt lat="47.98777" lon="2.30212">
        <ele>169</ele>
        <time>2020-09-05T14:57:14Z</time>
      </trkpt>
      <trkpt lat="47.98775" lon="2.30204">
        <ele>168</ele>
        <time>2020-09-05T14:57:15Z</time>
      </trkpt>
      <trkpt lat="47.98777" lon="2.30193">
        <ele>168</ele>
        <time>2020-09-05T14:57:17Z</time>
      </trkpt>
      <trkpt lat="47.98785" lon="2.30185">
        <ele>168</ele>
        <time>2020-09-05T14:57:19Z</time>
      </trkpt>
      <trkpt lat="47.98814" lon="2.30133">
        <ele>166</ele>
        <time>2020-09-05T14:57:30Z</time>
      </trkpt>
      <trkpt lat="47.98833" lon="2.30106">
        <ele>164</ele>
        <time>2020-09-05T14:57:36Z</time>
      </trkpt>
      <trkpt lat="47.98922" lon="2.30009">
        <ele>154</ele>
        <time>2020-09-05T14:58:01Z</time>
      </trkpt>
      <trkpt lat="47.98995" lon="2.29925">
        <ele>151</ele>
        <time>2020-09-05T14:58:23Z</time>
      </trkpt>
      <trkpt lat="47.99019" lon="2.29894">
        <ele>152</ele>
        <time>2020-09-05T14:58:30Z</time>
      </trkpt>
      <trkpt lat="47.99033" lon="2.29883">
        <ele>152</ele>
        <time>2020-09-05T14:58:34Z</time>
      </trkpt>
      <trkpt lat="47.99036" lon="2.29885">
        <ele>152</ele>
        <time>2020-09-05T14:58:35Z</time>
      </trkpt>
      <trkpt lat="47.99039" lon="2.29916">
        <ele>152</ele>
        <time>2020-09-05T14:58:40Z</time>
      </trkpt>
      <trkpt lat="47.9904" lon="2.30009">
        <ele>153</ele>
        <time>2020-09-05T14:58:54Z</time>
      </trkpt>
      <trkpt lat="47.99045" lon="2.30068">
        <ele>153</ele>
        <time>2020-09-05T14:59:03Z</time>
      </trkpt>
      <trkpt lat="47.9905" lon="2.30196">
        <ele>159</ele>
        <time>2020-09-05T14:59:24Z</time>
      </trkpt>
      <trkpt lat="47.99054" lon="2.3022">
        <ele>162</ele>
        <time>2020-09-05T14:59:27Z</time>
      </trkpt>
      <trkpt lat="47.99049" lon="2.30226">
        <ele>162</ele>
        <time>2020-09-05T14:59:29Z</time>
      </trkpt>
      <trkpt lat="47.99023" lon="2.30237">
        <ele>163</ele>
        <time>2020-09-05T14:59:35Z</time>
      </trkpt>
      <trkpt lat="47.98952" lon="2.30255">
        <ele>165</ele>
        <time>2020-09-05T14:59:52Z</time>
      </trkpt>
      <trkpt lat="47.98876" lon="2.30269">
        <ele>169</ele>
        <time>2020-09-05T15:00:10Z</time>
      </trkpt>
      <trkpt lat="47.98859" lon="2.30275">
        <ele>171</ele>
        <time>2020-09-05T15:00:14Z</time>
      </trkpt>
      <trkpt lat="47.98853" lon="2.30285">
        <ele>171</ele>
        <time>2020-09-05T15:00:16Z</time>
      </trkpt>
      <trkpt lat="47.98853" lon="2.30293">
        <ele>172</ele>
        <time>2020-09-05T15:00:17Z</time>
      </trkpt>
      <trkpt lat="47.9886" lon="2.30305">
        <ele>172</ele>
        <time>2020-09-05T15:00:20Z</time>
      </trkpt>
      <trkpt lat="47.98865" lon="2.30306">
        <ele>172</ele>
        <time>2020-09-05T15:00:21Z</time>
      </trkpt>
      <trkpt lat="47.98869" lon="2.30301">
        <ele>171</ele>
        <time>2020-09-05T15:00:22Z</time>
      </trkpt>
      <trkpt lat="47.98887" lon="2.30303">
        <ele>171</ele>
        <time>2020-09-05T15:00:26Z</time>
      </trkpt>
      <trkpt lat="47.98899" lon="2.30293">
        <ele>170</ele>
        <time>2020-09-05T15:00:30Z</time>
      </trkpt>
      <trkpt lat="47.98905" lon="2.30276">
        <ele>168</ele>
        <time>2020-09-05T15:00:33Z</time>
      </trkpt>
      <trkpt lat="47.9891" lon="2.30272">
        <ele>168</ele>
        <time>2020-09-05T15:00:34Z</time>
      </trkpt>
      <trkpt lat="47.98927" lon="2.30269">
        <ele>167</ele>
        <time>2020-09-05T15:00:38Z</time>
      </trkpt>
      <trkpt lat="47.9894" lon="2.3027">
        <ele>167</ele>
        <time>2020-09-05T15:00:41Z</time>
      </trkpt>
      <trkpt lat="47.98952" lon="2.30266">
        <ele>166</ele>
        <time>2020-09-05T15:00:44Z</time>
      </trkpt>
      <trkpt lat="47.98999" lon="2.30258">
        <ele>165</ele>
        <time>2020-09-05T15:00:55Z</time>
      </trkpt>
      <trkpt lat="47.99012" lon="2.30252">
        <ele>164</ele>
        <time>2020-09-05T15:00:58Z</time>
      </trkpt>
      <trkpt lat="47.99032" lon="2.30251">
        <ele>164</ele>
        <time>2020-09-05T15:01:03Z</time>
      </trkpt>
      <trkpt lat="47.9905" lon="2.30247">
        <ele>164</ele>
        <time>2020-09-05T15:01:07Z</time>
      </trkpt>
      <trkpt lat="47.99084" lon="2.30237">
        <ele>164</ele>
        <time>2020-09-05T15:01:15Z</time>
      </trkpt>
      <trkpt lat="47.99101" lon="2.30235">
        <ele>164</ele>
        <time>2020-09-05T15:01:19Z</time>
      </trkpt>
      <trkpt lat="47.99129" lon="2.30238">
        <ele>164</ele>
        <time>2020-09-05T15:01:26Z</time>
      </trkpt>
      <trkpt lat="47.99275" lon="2.30205">
        <ele>162</ele>
        <time>2020-09-05T15:02:00Z</time>
      </trkpt>
      <trkpt lat="47.99286" lon="2.30207">
        <ele>162</ele>
        <time>2020-09-05T15:02:03Z</time>
      </trkpt>
      <trkpt lat="47.99311" lon="2.30197">
        <ele>162</ele>
        <time>2020-09-05T15:02:09Z</time>
      </trkpt>
      <trkpt lat="47.99325" lon="2.3018">
        <ele>161</ele>
        <time>2020-09-05T15:02:13Z</time>
      </trkpt>
      <trkpt lat="47.99355" lon="2.3017">
        <ele>161</ele>
        <time>2020-09-05T15:02:20Z</time>
      </trkpt>
      <trkpt lat="47.99372" lon="2.3017">
        <ele>162</ele>
        <time>2020-09-05T15:02:24Z</time>
      </trkpt>
      <trkpt lat="47.99412" lon="2.30161">
        <ele>164</ele>
        <time>2020-09-05T15:02:34Z</time>
      </trkpt>
      <trkpt lat="47.99428" lon="2.30162">
        <ele>164</ele>
        <time>2020-09-05T15:02:37Z</time>
      </trkpt>
      <trkpt lat="47.99438" lon="2.30157">
        <ele>165</ele>
        <time>2020-09-05T15:02:40Z</time>
      </trkpt>
      <trkpt lat="47.99575" lon="2.3013">
        <ele>164</ele>
        <time>2020-09-05T15:03:12Z</time>
      </trkpt>
      <trkpt lat="47.99579" lon="2.30133">
        <ele>164</ele>
        <time>2020-09-05T15:03:13Z</time>
      </trkpt>
      <trkpt lat="47.99582" lon="2.30146">
        <ele>166</ele>
        <time>2020-09-05T15:03:15Z</time>
      </trkpt>
      <trkpt lat="47.99583" lon="2.3021">
        <ele>172</ele>
        <time>2020-09-05T15:03:25Z</time>
      </trkpt>
      <trkpt lat="47.99588" lon="2.30283">
        <ele>175</ele>
        <time>2020-09-05T15:03:37Z</time>
      </trkpt>
      <trkpt lat="47.99584" lon="2.30485">
        <ele>170</ele>
        <time>2020-09-05T15:04:08Z</time>
      </trkpt>
      <trkpt lat="47.99587" lon="2.30508">
        <ele>169</ele>
        <time>2020-09-05T15:04:12Z</time>
      </trkpt>
      <trkpt lat="47.99586" lon="2.30433">
        <ele>171</ele>
        <time>2020-09-05T15:04:24Z</time>
      </trkpt>
      <trkpt lat="47.99588" lon="2.30387">
        <ele>173</ele>
        <time>2020-09-05T15:04:31Z</time>
      </trkpt>
      <trkpt lat="47.99586" lon="2.30365">
        <ele>174</ele>
        <time>2020-09-05T15:04:34Z</time>
      </trkpt>
      <trkpt lat="47.99588" lon="2.30267">
        <ele>175</ele>
        <time>2020-09-05T15:04:50Z</time>
      </trkpt>
      <trkpt lat="47.99584" lon="2.30134">
        <ele>164</ele>
        <time>2020-09-05T15:05:10Z</time>
      </trkpt>
      <trkpt lat="47.99594" lon="2.30124">
        <ele>163</ele>
        <time>2020-09-05T15:05:13Z</time>
      </trkpt>
      <trkpt lat="47.99649" lon="2.30109">
        <ele>160</ele>
        <time>2020-09-05T15:05:26Z</time>
      </trkpt>
      <trkpt lat="47.99745" lon="2.30095">
        <ele>157</ele>
        <time>2020-09-05T15:05:49Z</time>
      </trkpt>
      <trkpt lat="47.99852" lon="2.30073">
        <ele>157</ele>
        <time>2020-09-05T15:06:14Z</time>
      </trkpt>
      <trkpt lat="47.99868" lon="2.30073">
        <ele>157</ele>
        <time>2020-09-05T15:06:18Z</time>
      </trkpt>
      <trkpt lat="47.99905" lon="2.30061">
        <ele>156</ele>
        <time>2020-09-05T15:06:27Z</time>
      </trkpt>
      <trkpt lat="47.99973" lon="2.30046">
        <ele>155</ele>
        <time>2020-09-05T15:06:43Z</time>
      </trkpt>
      <trkpt lat="47.99994" lon="2.30044">
        <ele>155</ele>
        <time>2020-09-05T15:06:48Z</time>
      </trkpt>
      <trkpt lat="47.99997" lon="2.30047">
        <ele>155</ele>
        <time>2020-09-05T15:06:48Z</time>
      </trkpt>
      <trkpt lat="47.99991" lon="2.30075">
        <ele>154</ele>
        <time>2020-09-05T15:06:53Z</time>
      </trkpt>
      <trkpt lat="47.99978" lon="2.30093">
        <ele>153</ele>
        <time>2020-09-05T15:06:57Z</time>
      </trkpt>
      <trkpt lat="47.99873" lon="2.30357">
        <ele>158</ele>
        <time>2020-09-05T15:07:45Z</time>
      </trkpt>
      <trkpt lat="47.99787" lon="2.30542">
        <ele>162</ele>
        <time>2020-09-05T15:08:20Z</time>
      </trkpt>
      <trkpt lat="47.99722" lon="2.30696">
        <ele>167</ele>
        <time>2020-09-05T15:08:49Z</time>
      </trkpt>
      <trkpt lat="47.99715" lon="2.30708">
        <ele>167</ele>
        <time>2020-09-05T15:08:51Z</time>
      </trkpt>
      <trkpt lat="47.9965" lon="2.30666">
        <ele>167</ele>
        <time>2020-09-05T15:09:08Z</time>
      </trkpt>
      <trkpt lat="47.99601" lon="2.30641">
        <ele>168</ele>
        <time>2020-09-05T15:09:20Z</time>
      </trkpt>
      <trkpt lat="47.99559" lon="2.30617">
        <ele>169</ele>
        <time>2020-09-05T15:09:30Z</time>
      </trkpt>
      <trkpt lat="47.99528" lon="2.30595">
        <ele>170</ele>
        <time>2020-09-05T15:09:38Z</time>
      </trkpt>
      <trkpt lat="47.99508" lon="2.30586">
        <ele>171</ele>
        <time>2020-09-05T15:09:43Z</time>
      </trkpt>
      <trkpt lat="47.9942" lon="2.30528">
        <ele>172</ele>
        <time>2020-09-05T15:10:06Z</time>
      </trkpt>
      <trkpt lat="47.99413" lon="2.30528">
        <ele>172</ele>
        <time>2020-09-05T15:10:07Z</time>
      </trkpt>
      <trkpt lat="47.99405" lon="2.30521">
        <ele>172</ele>
        <time>2020-09-05T15:10:10Z</time>
      </trkpt>
      <trkpt lat="47.99403" lon="2.30524">
        <ele>172</ele>
        <time>2020-09-05T15:10:10Z</time>
      </trkpt>
      <trkpt lat="47.99393" lon="2.30526">
        <ele>172</ele>
        <time>2020-09-05T15:10:13Z</time>
      </trkpt>
      <trkpt lat="47.99395" lon="2.30519">
        <ele>172</ele>
        <time>2020-09-05T15:10:14Z</time>
      </trkpt>
      <trkpt lat="47.99389" lon="2.30516">
        <ele>171</ele>
        <time>2020-09-05T15:10:15Z</time>
      </trkpt>
      <trkpt lat="47.99384" lon="2.30508">
        <ele>171</ele>
        <time>2020-09-05T15:10:17Z</time>
      </trkpt>
      <trkpt lat="47.99384" lon="2.30523">
        <ele>171</ele>
        <time>2020-09-05T15:10:19Z</time>
      </trkpt>
      <trkpt lat="47.99377" lon="2.30521">
        <ele>171</ele>
        <time>2020-09-05T15:10:21Z</time>
      </trkpt>
      <trkpt lat="47.99369" lon="2.30524">
        <ele>171</ele>
        <time>2020-09-05T15:10:23Z</time>
      </trkpt>
      <trkpt lat="47.99353" lon="2.30521">
        <ele>171</ele>
        <time>2020-09-05T15:10:27Z</time>
      </trkpt>
      <trkpt lat="47.99347" lon="2.3054">
        <ele>170</ele>
        <time>2020-09-05T15:10:30Z</time>
      </trkpt>
      <trkpt lat="47.99345" lon="2.30581">
        <ele>170</ele>
        <time>2020-09-05T15:10:36Z</time>
      </trkpt>
      <trkpt lat="47.9934" lon="2.30607">
        <ele>169</ele>
        <time>2020-09-05T15:10:41Z</time>
      </trkpt>
      <trkpt lat="47.99327" lon="2.30622">
        <ele>168</ele>
        <time>2020-09-05T15:10:44Z</time>
      </trkpt>
      <trkpt lat="47.99324" lon="2.30635">
        <ele>168</ele>
        <time>2020-09-05T15:10:47Z</time>
      </trkpt>
      <trkpt lat="47.99317" lon="2.30637">
        <ele>167</ele>
        <time>2020-09-05T15:10:48Z</time>
      </trkpt>
      <trkpt lat="47.99314" lon="2.30627">
        <ele>168</ele>
        <time>2020-09-05T15:10:50Z</time>
      </trkpt>
      <trkpt lat="47.99318" lon="2.30608">
        <ele>169</ele>
        <time>2020-09-05T15:10:53Z</time>
      </trkpt>
      <trkpt lat="47.99316" lon="2.30582">
        <ele>170</ele>
        <time>2020-09-05T15:10:57Z</time>
      </trkpt>
      <trkpt lat="47.99318" lon="2.3056">
        <ele>170</ele>
        <time>2020-09-05T15:11:01Z</time>
      </trkpt>
      <trkpt lat="47.99316" lon="2.30535">
        <ele>171</ele>
        <time>2020-09-05T15:11:05Z</time>
      </trkpt>
      <trkpt lat="47.99317" lon="2.30507">
        <ele>171</ele>
        <time>2020-09-05T15:11:09Z</time>
      </trkpt>
      <trkpt lat="47.99313" lon="2.30479">
        <ele>171</ele>
        <time>2020-09-05T15:11:13Z</time>
      </trkpt>
      <trkpt lat="47.99311" lon="2.30437">
        <ele>171</ele>
        <time>2020-09-05T15:11:20Z</time>
      </trkpt>
      <trkpt lat="47.99276" lon="2.30434">
        <ele>173</ele>
        <time>2020-09-05T15:11:28Z</time>
      </trkpt>
      <trkpt lat="47.99216" lon="2.30414">
        <ele>174</ele>
        <time>2020-09-05T15:11:43Z</time>
      </trkpt>
      <trkpt lat="47.992" lon="2.30411">
        <ele>174</ele>
        <time>2020-09-05T15:11:46Z</time>
      </trkpt>
      <trkpt lat="47.9913" lon="2.3041">
        <ele>174</ele>
        <time>2020-09-05T15:12:03Z</time>
      </trkpt>
      <trkpt lat="47.99009" lon="2.30382">
        <ele>175</ele>
        <time>2020-09-05T15:12:31Z</time>
      </trkpt>
      <trkpt lat="47.98993" lon="2.30377">
        <ele>175</ele>
        <time>2020-09-05T15:12:35Z</time>
      </trkpt>
      <trkpt lat="47.98978" lon="2.30368">
        <ele>175</ele>
        <time>2020-09-05T15:12:39Z</time>
      </trkpt>
      <trkpt lat="47.98961" lon="2.30353">
        <ele>174</ele>
        <time>2020-09-05T15:12:44Z</time>
      </trkpt>
      <trkpt lat="47.98938" lon="2.30346">
        <ele>174</ele>
        <time>2020-09-05T15:12:49Z</time>
      </trkpt>
      <trkpt lat="47.98927" lon="2.30339">
        <ele>173</ele>
        <time>2020-09-05T15:12:52Z</time>
      </trkpt>
      <trkpt lat="47.98896" lon="2.30328">
        <ele>173</ele>
        <time>2020-09-05T15:12:59Z</time>
      </trkpt>
      <trkpt lat="47.98853" lon="2.30301">
        <ele>172</ele>
        <time>2020-09-05T15:13:10Z</time>
      </trkpt>
      <trkpt lat="47.98846" lon="2.30307">
        <ele>172</ele>
        <time>2020-09-05T15:13:12Z</time>
      </trkpt>
      <trkpt lat="47.98844" lon="2.30317">
        <ele>173</ele>
        <time>2020-09-05T15:13:14Z</time>
      </trkpt>
      <trkpt lat="47.98846" lon="2.30349">
        <ele>173</ele>
        <time>2020-09-05T15:13:19Z</time>
      </trkpt>
      <trkpt lat="47.98844" lon="2.30363">
        <ele>172</ele>
        <time>2020-09-05T15:13:21Z</time>
      </trkpt>
      <trkpt lat="47.98844" lon="2.30408">
        <ele>171</ele>
        <time>2020-09-05T15:13:28Z</time>
      </trkpt>
      <trkpt lat="47.98847" lon="2.30426">
        <ele>171</ele>
        <time>2020-09-05T15:13:31Z</time>
      </trkpt>
      <trkpt lat="47.98845" lon="2.30438">
        <ele>170</ele>
        <time>2020-09-05T15:13:33Z</time>
      </trkpt>
      <trkpt lat="47.98836" lon="2.30445">
        <ele>169</ele>
        <time>2020-09-05T15:13:35Z</time>
      </trkpt>
      <trkpt lat="47.98797" lon="2.30441">
        <ele>166</ele>
        <time>2020-09-05T15:13:44Z</time>
      </trkpt>
      <trkpt lat="47.98798" lon="2.3041">
        <ele>167</ele>
        <time>2020-09-05T15:13:49Z</time>
      </trkpt>
      <trkpt lat="47.98805" lon="2.30404">
        <ele>168</ele>
        <time>2020-09-05T15:13:51Z</time>
      </trkpt>
      <trkpt lat="47.98806" lon="2.30406">
        <ele>168</ele>
        <time>2020-09-05T15:13:51Z</time>
      </trkpt>
      <trkpt lat="47.98798" lon="2.30399">
        <ele>167</ele>
        <time>2020-09-05T15:13:54Z</time>
      </trkpt>
      <trkpt lat="47.98777" lon="2.30395">
        <ele>166</ele>
        <time>2020-09-05T15:13:58Z</time>
      </trkpt>
      <trkpt lat="47.98763" lon="2.30395">
        <ele>164</ele>
        <time>2020-09-05T15:14:02Z</time>
      </trkpt>
      <trkpt lat="47.98751" lon="2.30398">
        <ele>163</ele>
        <time>2020-09-05T15:14:05Z</time>
      </trkpt>
      <trkpt lat="47.9875" lon="2.30401">
        <ele>163</ele>
        <time>2020-09-05T15:14:05Z</time>
      </trkpt>
      <trkpt lat="47.9876" lon="2.30413">
        <ele>163</ele>
        <time>2020-09-05T15:14:08Z</time>
      </trkpt>
      <trkpt lat="47.98756" lon="2.30418">
        <ele>163</ele>
        <time>2020-09-05T15:14:09Z</time>
      </trkpt>
      <trkpt lat="47.98764" lon="2.30423">
        <ele>163</ele>
        <time>2020-09-05T15:14:11Z</time>
      </trkpt>
      <trkpt lat="47.98768" lon="2.30432">
        <ele>163</ele>
        <time>2020-09-05T15:14:13Z</time>
      </trkpt>
      <trkpt lat="47.98786" lon="2.30445">
        <ele>165</ele>
        <time>2020-09-05T15:14:18Z</time>
      </trkpt>
      <trkpt lat="47.98791" lon="2.305">
        <ele>164</ele>
        <time>2020-09-05T15:14:26Z</time>
      </trkpt>
      <trkpt lat="47.98801" lon="2.30505">
        <ele>164</ele>
        <time>2020-09-05T15:14:29Z</time>
      </trkpt>
      <trkpt lat="47.9882" lon="2.30502">
        <ele>166</ele>
        <time>2020-09-05T15:14:33Z</time>
      </trkpt>
      <trkpt lat="47.98821" lon="2.30509">
        <ele>166</ele>
        <time>2020-09-05T15:14:34Z</time>
      </trkpt>
      <trkpt lat="47.98814" lon="2.30512">
        <ele>165</ele>
        <time>2020-09-05T15:14:36Z</time>
      </trkpt>
      <trkpt lat="47.98798" lon="2.30514">
        <ele>164</ele>
        <time>2020-09-05T15:14:40Z</time>
      </trkpt>
      <trkpt lat="47.98787" lon="2.30512">
        <ele>163</ele>
        <time>2020-09-05T15:14:42Z</time>
      </trkpt>
      <trkpt lat="47.98762" lon="2.30483">
        <ele>162</ele>
        <time>2020-09-05T15:14:50Z</time>
      </trkpt>
      <trkpt lat="47.98757" lon="2.3048">
        <ele>162</ele>
        <time>2020-09-05T15:14:51Z</time>
      </trkpt>
      <trkpt lat="47.98747" lon="2.30459">
        <ele>161</ele>
        <time>2020-09-05T15:14:55Z</time>
      </trkpt>
      <trkpt lat="47.9874" lon="2.30453">
        <ele>161</ele>
        <time>2020-09-05T15:14:57Z</time>
      </trkpt>
      <trkpt lat="47.98731" lon="2.3045">
        <ele>161</ele>
        <time>2020-09-05T15:14:59Z</time>
      </trkpt>
      <trkpt lat="47.98719" lon="2.30433">
        <ele>160</ele>
        <time>2020-09-05T15:15:03Z</time>
      </trkpt>
      <trkpt lat="47.98718" lon="2.30431">
        <ele>160</ele>
        <time>2020-09-05T15:15:03Z</time>
      </trkpt>
      <trkpt lat="47.9872" lon="2.3043">
        <ele>160</ele>
        <time>2020-09-05T15:15:04Z</time>
      </trkpt>
      <trkpt lat="47.98731" lon="2.30433">
        <ele>161</ele>
        <time>2020-09-05T15:15:07Z</time>
      </trkpt>
      <trkpt lat="47.98729" lon="2.30419">
        <ele>161</ele>
        <time>2020-09-05T15:15:09Z</time>
      </trkpt>
      <trkpt lat="47.98725" lon="2.30411">
        <ele>161</ele>
        <time>2020-09-05T15:15:10Z</time>
      </trkpt>
      <trkpt lat="47.98713" lon="2.30412">
        <ele>160</ele>
        <time>2020-09-05T15:15:13Z</time>
      </trkpt>
      <trkpt lat="47.987" lon="2.30403">
        <ele>159</ele>
        <time>2020-09-05T15:15:16Z</time>
      </trkpt>
      <trkpt lat="47.98702" lon="2.30396">
        <ele>160</ele>
        <time>2020-09-05T15:15:18Z</time>
      </trkpt>
      <trkpt lat="47.98704" lon="2.30394">
        <ele>160</ele>
        <time>2020-09-05T15:15:18Z</time>
      </trkpt>
      <trkpt lat="47.98716" lon="2.30393">
        <ele>161</ele>
        <time>2020-09-05T15:15:21Z</time>
      </trkpt>
      <trkpt lat="47.98729" lon="2.30397">
        <ele>161</ele>
        <time>2020-09-05T15:15:24Z</time>
      </trkpt>
      <trkpt lat="47.98734" lon="2.30401">
        <ele>162</ele>
        <time>2020-09-05T15:15:25Z</time>
      </trkpt>
      <trkpt lat="47.98732" lon="2.30387">
        <ele>162</ele>
        <time>2020-09-05T15:15:28Z</time>
      </trkpt>
      <trkpt lat="47.98745" lon="2.3039">
        <ele>163</ele>
        <time>2020-09-05T15:15:31Z</time>
      </trkpt>
      <trkpt lat="47.98752" lon="2.30372">
        <ele>164</ele>
        <time>2020-09-05T15:15:34Z</time>
      </trkpt>
      <trkpt lat="47.98757" lon="2.30376">
        <ele>165</ele>
        <time>2020-09-05T15:15:35Z</time>
      </trkpt>
      <trkpt lat="47.98755" lon="2.30374">
        <ele>164</ele>
        <time>2020-09-05T15:15:36Z</time>
      </trkpt>
      <trkpt lat="47.98759" lon="2.30375">
        <ele>165</ele>
        <time>2020-09-05T15:15:37Z</time>
      </trkpt>
      <trkpt lat="47.98765" lon="2.30372">
        <ele>165</ele>
        <time>2020-09-05T15:15:38Z</time>
      </trkpt>
      <trkpt lat="47.98783" lon="2.30353">
        <ele>168</ele>
        <time>2020-09-05T15:15:44Z</time>
      </trkpt>
      <trkpt lat="47.98791" lon="2.3035">
        <ele>169</ele>
        <time>2020-09-05T15:15:45Z</time>
      </trkpt>
      <trkpt lat="47.98799" lon="2.30352">
        <ele>169</ele>
        <time>2020-09-05T15:15:47Z</time>
      </trkpt>
      <trkpt lat="47.98807" lon="2.30359">
        <ele>170</ele>
        <time>2020-09-05T15:15:49Z</time>
      </trkpt>
      <trkpt lat="47.98819" lon="2.30361">
        <ele>171</ele>
        <time>2020-09-05T15:15:52Z</time>
      </trkpt>
      <trkpt lat="47.98827" lon="2.30368">
        <ele>171</ele>
        <time>2020-09-05T15:15:54Z</time>
      </trkpt>
      <trkpt lat="47.98828" lon="2.30372">
        <ele>171</ele>
        <time>2020-09-05T15:15:55Z</time>
      </trkpt>
      <trkpt lat="47.98837" lon="2.30377">
        <ele>172</ele>
        <time>2020-09-05T15:15:57Z</time>
      </trkpt>
      <trkpt lat="47.98838" lon="2.30363">
        <ele>172</ele>
        <time>2020-09-05T15:16:00Z</time>
      </trkpt>
      <trkpt lat="47.98835" lon="2.30354">
        <ele>172</ele>
        <time>2020-09-05T15:16:01Z</time>
      </trkpt>
      <trkpt lat="47.98827" lon="2.30343">
        <ele>172</ele>
        <time>2020-09-05T15:16:04Z</time>
      </trkpt>
      <trkpt lat="47.98818" lon="2.30342">
        <ele>171</ele>
        <time>2020-09-05T15:16:06Z</time>
      </trkpt>
      <trkpt lat="47.98813" lon="2.30326">
        <ele>171</ele>
        <time>2020-09-05T15:16:09Z</time>
      </trkpt>
      <trkpt lat="47.98803" lon="2.30326">
        <ele>170</ele>
        <time>2020-09-05T15:16:11Z</time>
      </trkpt>
      <trkpt lat="47.98797" lon="2.30337">
        <ele>170</ele>
        <time>2020-09-05T15:16:13Z</time>
      </trkpt>
      <trkpt lat="47.98794" lon="2.30338">
        <ele>170</ele>
        <time>2020-09-05T15:16:14Z</time>
      </trkpt>
      <trkpt lat="47.98792" lon="2.30336">
        <ele>169</ele>
        <time>2020-09-05T15:16:14Z</time>
      </trkpt>
      <trkpt lat="47.98789" lon="2.30342">
        <ele>169</ele>
        <time>2020-09-05T15:16:16Z</time>
      </trkpt>
      <trkpt lat="47.98751" lon="2.3036">
        <ele>165</ele>
        <time>2020-09-05T15:16:25Z</time>
      </trkpt>
      <trkpt lat="47.98745" lon="2.30353">
        <ele>165</ele>
        <time>2020-09-05T15:16:27Z</time>
      </trkpt>
      <trkpt lat="47.9874" lon="2.30341">
        <ele>165</ele>
        <time>2020-09-05T15:16:29Z</time>
      </trkpt>
      <trkpt lat="47.98715" lon="2.30313">
        <ele>163</ele>
        <time>2020-09-05T15:16:36Z</time>
      </trkpt>
      <trkpt lat="47.987" lon="2.3032">
        <ele>161</ele>
        <time>2020-09-05T15:16:40Z</time>
      </trkpt>
      <trkpt lat="47.98688" lon="2.30322">
        <ele>160</ele>
        <time>2020-09-05T15:16:43Z</time>
      </trkpt>
      <trkpt lat="47.98684" lon="2.30316">
        <ele>159</ele>
        <time>2020-09-05T15:16:44Z</time>
      </trkpt>
      <trkpt lat="47.9868" lon="2.30293">
        <ele>159</ele>
        <time>2020-09-05T15:16:48Z</time>
      </trkpt>
      <trkpt lat="47.98648" lon="2.30302">
        <ele>157</ele>
        <time>2020-09-05T15:16:55Z</time>
      </trkpt>
      <trkpt lat="47.98641" lon="2.30302">
        <ele>156</ele>
        <time>2020-09-05T15:16:57Z</time>
      </trkpt>
      <trkpt lat="47.98637" lon="2.30282">
        <ele>156</ele>
        <time>2020-09-05T15:17:00Z</time>
      </trkpt>
      <trkpt lat="47.98642" lon="2.30277">
        <ele>157</ele>
        <time>2020-09-05T15:17:02Z</time>
      </trkpt>
      <trkpt lat="47.9865" lon="2.30275">
        <ele>157</ele>
        <time>2020-09-05T15:17:03Z</time>
      </trkpt>
      <trkpt lat="47.98661" lon="2.30282">
        <ele>158</ele>
        <time>2020-09-05T15:17:06Z</time>
      </trkpt>
      <trkpt lat="47.9867" lon="2.30284">
        <ele>159</ele>
        <time>2020-09-05T15:17:08Z</time>
      </trkpt>
      <trkpt lat="47.98672" lon="2.30277">
        <ele>159</ele>
        <time>2020-09-05T15:17:10Z</time>
      </trkpt>
      <trkpt lat="47.98681" lon="2.3028">
        <ele>160</ele>
        <time>2020-09-05T15:17:12Z</time>
      </trkpt>
      <trkpt lat="47.98689" lon="2.3027">
        <ele>161</ele>
        <time>2020-09-05T15:17:14Z</time>
      </trkpt>
      <trkpt lat="47.98685" lon="2.30253">
        <ele>161</ele>
        <time>2020-09-05T15:17:17Z</time>
      </trkpt>
      <trkpt lat="47.98686" lon="2.30239">
        <ele>161</ele>
        <time>2020-09-05T15:17:19Z</time>
      </trkpt>
      <trkpt lat="47.98678" lon="2.30198">
        <ele>161</ele>
        <time>2020-09-05T15:17:26Z</time>
      </trkpt>
      <trkpt lat="47.98681" lon="2.30179">
        <ele>162</ele>
        <time>2020-09-05T15:17:29Z</time>
      </trkpt>
      <trkpt lat="47.98681" lon="2.3015">
        <ele>163</ele>
        <time>2020-09-05T15:17:33Z</time>
      </trkpt>
      <trkpt lat="47.98689" lon="2.30146">
        <ele>163</ele>
        <time>2020-09-05T15:17:35Z</time>
      </trkpt>
      <trkpt lat="47.98697" lon="2.30156">
        <ele>164</ele>
        <time>2020-09-05T15:17:38Z</time>
      </trkpt>
      <trkpt lat="47.98716" lon="2.30167">
        <ele>166</ele>
        <time>2020-09-05T15:17:43Z</time>
      </trkpt>
      <trkpt lat="47.9873" lon="2.30167">
        <ele>167</ele>
        <time>2020-09-05T15:17:46Z</time>
      </trkpt>
      <trkpt lat="47.98746" lon="2.30176">
        <ele>168</ele>
        <time>2020-09-05T15:17:50Z</time>
      </trkpt>
      <trkpt lat="47.98758" lon="2.30192">
        <ele>169</ele>
        <time>2020-09-05T15:17:54Z</time>
      </trkpt>
      <trkpt lat="47.98766" lon="2.30218">
        <ele>169</ele>
        <time>2020-09-05T15:17:58Z</time>
      </trkpt>
      <trkpt lat="47.98761" lon="2.30233">
        <ele>169</ele>
        <time>2020-09-05T15:18:01Z</time>
      </trkpt>
      <trkpt lat="47.98752" lon="2.30244">
        <ele>168</ele>
        <time>2020-09-05T15:18:03Z</time>
      </trkpt>
      <trkpt lat="47.98738" lon="2.30255">
        <ele>167</ele>
        <time>2020-09-05T15:18:07Z</time>
      </trkpt>
      <trkpt lat="47.98738" lon="2.30261">
        <ele>166</ele>
        <time>2020-09-05T15:18:08Z</time>
      </trkpt>
      <trkpt lat="47.9875" lon="2.30268">
        <ele>168</ele>
        <time>2020-09-05T15:18:11Z</time>
      </trkpt>
      <trkpt lat="47.98779" lon="2.30263">
        <ele>169</ele>
        <time>2020-09-05T15:18:18Z</time>
      </trkpt>
      <trkpt lat="47.98792" lon="2.30265">
        <ele>170</ele>
        <time>2020-09-05T15:18:21Z</time>
      </trkpt>
      <trkpt lat="47.98793" lon="2.30268">
        <ele>170</ele>
        <time>2020-09-05T15:18:21Z</time>
      </trkpt>
      <trkpt lat="47.98796" lon="2.30267">
        <ele>170</ele>
        <time>2020-09-05T15:18:22Z</time>
      </trkpt>
      <trkpt lat="47.98795" lon="2.3026">
        <ele>170</ele>
        <time>2020-09-05T15:18:23Z</time>
      </trkpt>
      <trkpt lat="47.988" lon="2.30262">
        <ele>170</ele>
        <time>2020-09-05T15:18:25Z</time>
      </trkpt>
      <trkpt lat="47.98804" lon="2.30272">
        <ele>171</ele>
        <time>2020-09-05T15:18:26Z</time>
      </trkpt>
      <trkpt lat="47.98809" lon="2.30263">
        <ele>171</ele>
        <time>2020-09-05T15:18:28Z</time>
      </trkpt>
      <trkpt lat="47.98824" lon="2.30275">
        <ele>172</ele>
        <time>2020-09-05T15:18:32Z</time>
      </trkpt>
      <trkpt lat="47.98835" lon="2.30276">
        <ele>172</ele>
        <time>2020-09-05T15:18:35Z</time>
      </trkpt>
      <trkpt lat="47.98849" lon="2.30273">
        <ele>171</ele>
        <time>2020-09-05T15:18:38Z</time>
      </trkpt>
      <trkpt lat="47.98612" lon="2.3032">
        <ele>154</ele>
        <time>2020-09-05T15:19:34Z</time>
      </trkpt>
      <trkpt lat="47.98573" lon="2.30253">
        <ele>153</ele>
        <time>2020-09-05T15:19:48Z</time>
      </trkpt>
      <trkpt lat="47.98072" lon="2.29189">
        <ele>142</ele>
        <time>2020-09-05T15:23:11Z</time>
      </trkpt>
      <trkpt lat="47.98049" lon="2.28671">
        <ele>139</ele>
        <time>2020-09-05T15:24:32Z</time>
      </trkpt>
      <trkpt lat="47.98164" lon="2.28593">
        <ele>141</ele>
        <time>2020-09-05T15:25:02Z</time>
      </trkpt>
      <trkpt lat="47.98225" lon="2.28511">
        <ele>140</ele>
        <time>2020-09-05T15:25:21Z</time>
      </trkpt>
      <trkpt lat="47.9828" lon="2.28465">
        <ele>142</ele>
        <time>2020-09-05T15:25:36Z</time>
      </trkpt>
      <trkpt lat="47.98314" lon="2.28428">
        <ele>143</ele>
        <time>2020-09-05T15:25:45Z</time>
      </trkpt>
      <trkpt lat="47.98395" lon="2.28327">
        <ele>145</ele>
        <time>2020-09-05T15:26:10Z</time>
      </trkpt>
      <trkpt lat="47.98434" lon="2.28251">
        <ele>144</ele>
        <time>2020-09-05T15:26:25Z</time>
      </trkpt>
      <trkpt lat="47.98462" lon="2.28177">
        <ele>145</ele>
        <time>2020-09-05T15:26:38Z</time>
      </trkpt>
      <trkpt lat="47.98478" lon="2.28045">
        <ele>146</ele>
        <time>2020-09-05T15:26:59Z</time>
      </trkpt>
      <trkpt lat="47.98501" lon="2.27951">
        <ele>145</ele>
        <time>2020-09-05T15:27:15Z</time>
      </trkpt>
      <trkpt lat="47.98403" lon="2.24694">
        <ele>133</ele>
        <time>2020-09-05T15:35:45Z</time>
      </trkpt>
      <trkpt lat="47.97414" lon="2.24761">
        <ele>128</ele>
        <time>2020-09-05T15:39:36Z</time>
      </trkpt>
      <trkpt lat="47.97401" lon="2.24639">
        <ele>127</ele>
        <time>2020-09-05T15:39:55Z</time>
      </trkpt>
      <trkpt lat="47.97127" lon="2.24767">
        <ele>132</ele>
        <time>2020-09-05T15:41:02Z</time>
      </trkpt>
      <trkpt lat="47.97013" lon="2.2437">
        <ele>126</ele>
        <time>2020-09-05T15:42:10Z</time>
      </trkpt>
      <trkpt lat="47.96998" lon="2.24327">
        <ele>125</ele>
        <time>2020-09-05T15:42:17Z</time>
      </trkpt>
      <trkpt lat="47.9698" lon="2.24255">
        <ele>125</ele>
        <time>2020-09-05T15:42:29Z</time>
      </trkpt>
      <trkpt lat="47.9698" lon="2.24234">
        <ele>126</ele>
        <time>2020-09-05T15:42:33Z</time>
      </trkpt>
      <trkpt lat="47.96859" lon="2.24103">
        <ele>128</ele>
        <time>2020-09-05T15:43:07Z</time>
      </trkpt>
      <trkpt lat="47.96741" lon="2.23991">
        <ele>131</ele>
        <time>2020-09-05T15:43:40Z</time>
      </trkpt>
      <trkpt lat="47.96687" lon="2.23781">
        <ele>132</ele>
        <time>2020-09-05T15:44:15Z</time>
      </trkpt>
      <trkpt lat="47.9626" lon="2.23982">
        <ele>134</ele>
        <time>2020-09-05T15:46:00Z</time>
      </trkpt>
      <trkpt lat="47.96216" lon="2.23797">
        <ele>134</ele>
        <time>2020-09-05T15:46:31Z</time>
      </trkpt>
      <trkpt lat="47.96139" lon="2.23519">
        <ele>131</ele>
        <time>2020-09-05T15:47:18Z</time>
      </trkpt>
      <trkpt lat="47.95855" lon="2.22772">
        <ele>131</ele>
        <time>2020-09-05T15:49:32Z</time>
      </trkpt>
      <trkpt lat="47.95716" lon="2.22776">
        <ele>132</ele>
        <time>2020-09-05T15:50:04Z</time>
      </trkpt>
      <trkpt lat="47.95726" lon="2.22614">
        <ele>132</ele>
        <time>2020-09-05T15:50:30Z</time>
      </trkpt>
      <trkpt lat="47.95825" lon="2.21925">
        <ele>134</ele>
        <time>2020-09-05T15:52:20Z</time>
      </trkpt>
      <trkpt lat="47.95619" lon="2.21888">
        <ele>137</ele>
        <time>2020-09-05T15:53:08Z</time>
      </trkpt>
      <trkpt lat="47.9561" lon="2.21517">
        <ele>136</ele>
        <time>2020-09-05T15:54:07Z</time>
      </trkpt>
      <trkpt lat="47.95609" lon="2.21286">
        <ele>134</ele>
        <time>2020-09-05T15:54:43Z</time>
      </trkpt>
      <trkpt lat="47.95345" lon="2.21343">
        <ele>127</ele>
        <time>2020-09-05T15:55:45Z</time>
      </trkpt>
      <trkpt lat="47.95453" lon="2.20878">
        <ele>133</ele>
        <time>2020-09-05T15:57:02Z</time>
      </trkpt>
      <trkpt lat="47.95486" lon="2.20418">
        <ele>133</ele>
        <time>2020-09-05T15:58:14Z</time>
      </trkpt>
      <trkpt lat="47.95497" lon="2.19999">
        <ele>128</ele>
        <time>2020-09-05T15:59:20Z</time>
      </trkpt>
      <trkpt lat="47.94988" lon="2.18399">
        <ele>123</ele>
        <time>2020-09-05T16:03:57Z</time>
      </trkpt>
      <trkpt lat="47.94568" lon="2.17417">
        <ele>119</ele>
        <time>2020-09-05T16:06:59Z</time>
      </trkpt>
      <trkpt lat="47.94378" lon="2.16897">
        <ele>110</ele>
        <time>2020-09-05T16:08:32Z</time>
      </trkpt>
      <trkpt lat="47.94208" lon="2.16572">
        <ele>110</ele>
        <time>2020-09-05T16:09:36Z</time>
      </trkpt>
      <trkpt lat="47.942" lon="2.16547">
        <ele>110</ele>
        <time>2020-09-05T16:09:41Z</time>
      </trkpt>
      <trkpt lat="47.94173" lon="2.16395">
        <ele>107</ele>
        <time>2020-09-05T16:10:05Z</time>
      </trkpt>
      <trkpt lat="47.9418" lon="2.16214">
        <ele>110</ele>
        <time>2020-09-05T16:10:34Z</time>
      </trkpt>
      <trkpt lat="47.94173" lon="2.16168">
        <ele>111</ele>
        <time>2020-09-05T16:10:41Z</time>
      </trkpt>
      <trkpt lat="47.94138" lon="2.16029">
        <ele>110</ele>
        <time>2020-09-05T16:11:04Z</time>
      </trkpt>
      <trkpt lat="47.93899" lon="2.15723">
        <ele>110</ele>
        <time>2020-09-05T16:12:18Z</time>
      </trkpt>
      <trkpt lat="47.93842" lon="2.1562">
        <ele>111</ele>
        <time>2020-09-05T16:12:39Z</time>
      </trkpt>
      <trkpt lat="47.93814" lon="2.1553">
        <ele>111</ele>
        <time>2020-09-05T16:12:54Z</time>
      </trkpt>
      <trkpt lat="47.93803" lon="2.15469">
        <ele>110</ele>
        <time>2020-09-05T16:13:04Z</time>
      </trkpt>
      <trkpt lat="47.93785" lon="2.15266">
        <ele>107</ele>
        <time>2020-09-05T16:13:36Z</time>
      </trkpt>
      <trkpt lat="47.93777" lon="2.15246">
        <ele>107</ele>
        <time>2020-09-05T16:13:40Z</time>
      </trkpt>
      <trkpt lat="47.93766" lon="2.15228">
        <ele>107</ele>
        <time>2020-09-05T16:13:44Z</time>
      </trkpt>
      <trkpt lat="47.93747" lon="2.15141">
        <ele>107</ele>
        <time>2020-09-05T16:13:58Z</time>
      </trkpt>
      <trkpt lat="47.93736" lon="2.15124">
        <ele>106</ele>
        <time>2020-09-05T16:14:02Z</time>
      </trkpt>
      <trkpt lat="47.93716" lon="2.15121">
        <ele>106</ele>
        <time>2020-09-05T16:14:06Z</time>
      </trkpt>
      <trkpt lat="47.93711" lon="2.15124">
        <ele>106</ele>
        <time>2020-09-05T16:14:08Z</time>
      </trkpt>
      <trkpt lat="47.93708" lon="2.15111">
        <ele>106</ele>
        <time>2020-09-05T16:14:10Z</time>
      </trkpt>
      <trkpt lat="47.93663" lon="2.15014">
        <ele>106</ele>
        <time>2020-09-05T16:14:28Z</time>
      </trkpt>
      <trkpt lat="47.93579" lon="2.14839">
        <ele>107</ele>
        <time>2020-09-05T16:15:02Z</time>
      </trkpt>
      <trkpt lat="47.93566" lon="2.14818">
        <ele>107</ele>
        <time>2020-09-05T16:15:06Z</time>
      </trkpt>
      <trkpt lat="47.93544" lon="2.14773">
        <ele>106</ele>
        <time>2020-09-05T16:15:15Z</time>
      </trkpt>
      <trkpt lat="47.93539" lon="2.14729">
        <ele>106</ele>
        <time>2020-09-05T16:15:22Z</time>
      </trkpt>
      <trkpt lat="47.93573" lon="2.14663">
        <ele>105</ele>
        <time>2020-09-05T16:15:35Z</time>
      </trkpt>
      <trkpt lat="47.93497" lon="2.14568">
        <ele>105</ele>
        <time>2020-09-05T16:15:58Z</time>
      </trkpt>
      <trkpt lat="47.93401" lon="2.14414">
        <ele>116</ele>
        <time>2020-09-05T16:16:31Z</time>
      </trkpt>
      <trkpt lat="47.93344" lon="2.14298">
        <ele>109</ele>
        <time>2020-09-05T16:16:54Z</time>
      </trkpt>
      <trkpt lat="47.93328" lon="2.14272">
        <ele>107</ele>
        <time>2020-09-05T16:16:59Z</time>
      </trkpt>
      <trkpt lat="47.93379" lon="2.14246">
        <ele>110</ele>
        <time>2020-09-05T16:17:12Z</time>
      </trkpt>
      <trkpt lat="47.93454" lon="2.14184">
        <ele>106</ele>
        <time>2020-09-05T16:17:32Z</time>
      </trkpt>
      <trkpt lat="47.93428" lon="2.14146">
        <ele>105</ele>
        <time>2020-09-05T16:17:40Z</time>
      </trkpt>
      <trkpt lat="47.93202" lon="2.13889">
        <ele>106</ele>
        <time>2020-09-05T16:18:47Z</time>
      </trkpt>
      <trkpt lat="47.93185" lon="2.13877">
        <ele>107</ele>
        <time>2020-09-05T16:18:51Z</time>
      </trkpt>
      <trkpt lat="47.93302" lon="2.13699">
        <ele>111</ele>
        <time>2020-09-05T16:19:30Z</time>
      </trkpt>
      <trkpt lat="47.9333" lon="2.13624">
        <ele>111</ele>
        <time>2020-09-05T16:19:43Z</time>
      </trkpt>
      <trkpt lat="47.93348" lon="2.13598">
        <ele>111</ele>
        <time>2020-09-05T16:19:49Z</time>
      </trkpt>
      <trkpt lat="47.93389" lon="2.13568">
        <ele>110</ele>
        <time>2020-09-05T16:20:00Z</time>
      </trkpt>
      <trkpt lat="47.93454" lon="2.13503">
        <ele>110</ele>
        <time>2020-09-05T16:20:18Z</time>
      </trkpt>
      <trkpt lat="47.93481" lon="2.13487">
        <ele>110</ele>
        <time>2020-09-05T16:20:25Z</time>
      </trkpt>
      <trkpt lat="47.93519" lon="2.13472">
        <ele>110</ele>
        <time>2020-09-05T16:20:34Z</time>
      </trkpt>
      <trkpt lat="47.93563" lon="2.13443">
        <ele>109</ele>
        <time>2020-09-05T16:20:45Z</time>
      </trkpt>
      <trkpt lat="47.93767" lon="2.13098">
        <ele>111</ele>
        <time>2020-09-05T16:21:57Z</time>
      </trkpt>
      <trkpt lat="47.93548" lon="2.12991">
        <ele>112</ele>
        <time>2020-09-05T16:22:51Z</time>
      </trkpt>
      <trkpt lat="47.93734" lon="2.12721">
        <ele>113</ele>
        <time>2020-09-05T16:23:52Z</time>
      </trkpt>
      <trkpt lat="47.93839" lon="2.12607">
        <ele>114</ele>
        <time>2020-09-05T16:24:22Z</time>
      </trkpt>
      <trkpt lat="47.93761" lon="2.12149">
        <ele>113</ele>
        <time>2020-09-05T16:25:36Z</time>
      </trkpt>
      <trkpt lat="47.9371" lon="2.11801">
        <ele>117</ele>
        <time>2020-09-05T16:26:32Z</time>
      </trkpt>
      <trkpt lat="47.93626" lon="2.116">
        <ele>128</ele>
        <time>2020-09-05T16:27:09Z</time>
      </trkpt>
      <trkpt lat="47.93588" lon="2.11539">
        <ele>129</ele>
        <time>2020-09-05T16:27:22Z</time>
      </trkpt>
      <trkpt lat="47.93587" lon="2.11532">
        <ele>129</ele>
        <time>2020-09-05T16:27:23Z</time>
      </trkpt>
      <trkpt lat="47.93608" lon="2.11497">
        <ele>128</ele>
        <time>2020-09-05T16:27:30Z</time>
      </trkpt>
      <trkpt lat="47.93602" lon="2.1143">
        <ele>127</ele>
        <time>2020-09-05T16:27:41Z</time>
      </trkpt>
      <trkpt lat="47.93586" lon="2.11406">
        <ele>127</ele>
        <time>2020-09-05T16:27:46Z</time>
      </trkpt>
      <trkpt lat="47.93568" lon="2.11342">
        <ele>125</ele>
        <time>2020-09-05T16:27:57Z</time>
      </trkpt>
      <trkpt lat="47.9355" lon="2.11337">
        <ele>124</ele>
        <time>2020-09-05T16:28:01Z</time>
      </trkpt>
      <trkpt lat="47.9354" lon="2.11345">
        <ele>124</ele>
        <time>2020-09-05T16:28:04Z</time>
      </trkpt>
      <trkpt lat="47.93524" lon="2.11375">
        <ele>123</ele>
        <time>2020-09-05T16:28:10Z</time>
      </trkpt>
      <trkpt lat="47.93504" lon="2.11378">
        <ele>122</ele>
        <time>2020-09-05T16:28:15Z</time>
      </trkpt>
      <trkpt lat="47.93492" lon="2.11372">
        <ele>122</ele>
        <time>2020-09-05T16:28:18Z</time>
      </trkpt>
      <trkpt lat="47.93429" lon="2.11314">
        <ele>121</ele>
        <time>2020-09-05T16:28:35Z</time>
      </trkpt>
      <trkpt lat="47.93414" lon="2.11281">
        <ele>122</ele>
        <time>2020-09-05T16:28:41Z</time>
      </trkpt>
      <trkpt lat="47.93399" lon="2.11239">
        <ele>123</ele>
        <time>2020-09-05T16:28:49Z</time>
      </trkpt>
      <trkpt lat="47.93455" lon="2.11188">
        <ele>126</ele>
        <time>2020-09-05T16:29:04Z</time>
      </trkpt>
      <trkpt lat="47.93675" lon="2.11094">
        <ele>127</ele>
        <time>2020-09-05T16:29:57Z</time>
      </trkpt>
      <trkpt lat="47.93745" lon="2.09832">
        <ele>111</ele>
        <time>2020-09-05T16:33:16Z</time>
      </trkpt>
      <trkpt lat="47.93756" lon="2.09597">
        <ele>108</ele>
        <time>2020-09-05T16:33:52Z</time>
      </trkpt>
      <trkpt lat="47.93768" lon="2.09451">
        <ele>109</ele>
        <time>2020-09-05T16:34:15Z</time>
      </trkpt>
      <trkpt lat="47.93792" lon="2.08963">
        <ele>112</ele>
        <time>2020-09-05T16:35:32Z</time>
      </trkpt>
      <trkpt lat="47.93803" lon="2.086">
        <ele>115</ele>
        <time>2020-09-05T16:36:29Z</time>
      </trkpt>
      <trkpt lat="47.93816" lon="2.085">
        <ele>114</ele>
        <time>2020-09-05T16:36:45Z</time>
      </trkpt>
      <trkpt lat="47.93905" lon="2.06917">
        <ele>119</ele>
        <time>2020-09-05T16:40:53Z</time>
      </trkpt>
      <trkpt lat="47.93917" lon="2.06658">
        <ele>117</ele>
        <time>2020-09-05T16:41:34Z</time>
      </trkpt>
      <trkpt lat="47.93932" lon="2.06544">
        <ele>117</ele>
        <time>2020-09-05T16:41:52Z</time>
      </trkpt>
      <trkpt lat="47.93943" lon="2.06246">
        <ele>113</ele>
        <time>2020-09-05T16:42:39Z</time>
      </trkpt>
      <trkpt lat="47.94" lon="2.05239">
        <ele>107</ele>
        <time>2020-09-05T16:45:17Z</time>
      </trkpt>
      <trkpt lat="47.93887" lon="2.05127">
        <ele>110</ele>
        <time>2020-09-05T16:45:49Z</time>
      </trkpt>
      <trkpt lat="47.94111" lon="2.04704">
        <ele>111</ele>
        <time>2020-09-05T16:47:13Z</time>
      </trkpt>
      <trkpt lat="47.94333" lon="2.04782">
        <ele>113</ele>
        <time>2020-09-05T16:48:06Z</time>
      </trkpt>
      <trkpt lat="47.94333" lon="2.04562">
        <ele>111</ele>
        <time>2020-09-05T16:48:41Z</time>
      </trkpt>
      <trkpt lat="47.94336" lon="2.04484">
        <ele>112</ele>
        <time>2020-09-05T16:48:53Z</time>
      </trkpt>
      <trkpt lat="47.94318" lon="2.02923">
        <ele>119</ele>
        <time>2020-09-05T16:52:57Z</time>
      </trkpt>
      <trkpt lat="47.94326" lon="2.02756">
        <ele>115</ele>
        <time>2020-09-05T16:53:23Z</time>
      </trkpt>
      <trkpt lat="47.94363" lon="2.02399">
        <ele>114</ele>
        <time>2020-09-05T16:54:20Z</time>
      </trkpt>
      <trkpt lat="47.94432" lon="2.02064">
        <ele>115</ele>
        <time>2020-09-05T16:55:15Z</time>
      </trkpt>
      <trkpt lat="47.94546" lon="2.01544">
        <ele>107</ele>
        <time>2020-09-05T16:56:40Z</time>
      </trkpt>
      <trkpt lat="47.94571" lon="2.01403">
        <ele>106</ele>
        <time>2020-09-05T16:57:03Z</time>
      </trkpt>
      <trkpt lat="47.94345" lon="2.01041">
        <ele>105</ele>
        <time>2020-09-05T16:58:20Z</time>
      </trkpt>
      <trkpt lat="47.94346" lon="2.01003">
        <ele>104</ele>
        <time>2020-09-05T16:58:26Z</time>
      </trkpt>
      <trkpt lat="47.94257" lon="2.01001">
        <ele>105</ele>
        <time>2020-09-05T16:58:47Z</time>
      </trkpt>
      <trkpt lat="47.94242" lon="2.00991">
        <ele>105</ele>
        <time>2020-09-05T16:58:51Z</time>
      </trkpt>
      <trkpt lat="47.94217" lon="2.00932">
        <ele>106</ele>
        <time>2020-09-05T16:59:02Z</time>
      </trkpt>
      <trkpt lat="47.94212" lon="2.00911">
        <ele>106</ele>
        <time>2020-09-05T16:59:05Z</time>
      </trkpt>
      <trkpt lat="47.94206" lon="2.00901">
        <ele>107</ele>
        <time>2020-09-05T16:59:07Z</time>
      </trkpt>
      <trkpt lat="47.94054" lon="2.00539">
        <ele>107</ele>
        <time>2020-09-05T17:00:14Z</time>
      </trkpt>
      <trkpt lat="47.94021" lon="2.00454">
        <ele>111</ele>
        <time>2020-09-05T17:00:30Z</time>
      </trkpt>
      <trkpt lat="47.93817" lon="1.99976">
        <ele>117</ele>
        <time>2020-09-05T17:01:58Z</time>
      </trkpt>
      <trkpt lat="47.93729" lon="1.9976">
        <ele>120</ele>
        <time>2020-09-05T17:02:38Z</time>
      </trkpt>
      <trkpt lat="47.93695" lon="1.99795">
        <ele>120</ele>
        <time>2020-09-05T17:02:47Z</time>
      </trkpt>
      <trkpt lat="47.93533" lon="1.99325">
        <ele>125</ele>
        <time>2020-09-05T17:04:10Z</time>
      </trkpt>
      <trkpt lat="47.9354" lon="1.99306">
        <ele>124</ele>
        <time>2020-09-05T17:04:14Z</time>
      </trkpt>
      <trkpt lat="47.93533" lon="1.99294">
        <ele>124</ele>
        <time>2020-09-05T17:04:16Z</time>
      </trkpt>
      <trkpt lat="47.93509" lon="1.99312">
        <ele>127</ele>
        <time>2020-09-05T17:04:22Z</time>
      </trkpt>
      <trkpt lat="47.93488" lon="1.99319">
        <ele>128</ele>
        <time>2020-09-05T17:04:27Z</time>
      </trkpt>
      <trkpt lat="47.93454" lon="1.99323">
        <ele>130</ele>
        <time>2020-09-05T17:04:35Z</time>
      </trkpt>
      <trkpt lat="47.9341" lon="1.99315">
        <ele>131</ele>
        <time>2020-09-05T17:04:46Z</time>
      </trkpt>
      <trkpt lat="47.93366" lon="1.9924">
        <ele>130</ele>
        <time>2020-09-05T17:05:01Z</time>
      </trkpt>
      <trkpt lat="47.93346" lon="1.99199">
        <ele>127</ele>
        <time>2020-09-05T17:05:09Z</time>
      </trkpt>
      <trkpt lat="47.93322" lon="1.99131">
        <ele>124</ele>
        <time>2020-09-05T17:05:21Z</time>
      </trkpt>
      <trkpt lat="47.93308" lon="1.99101">
        <ele>123</ele>
        <time>2020-09-05T17:05:27Z</time>
      </trkpt>
      <trkpt lat="47.93229" lon="1.9903">
        <ele>125</ele>
        <time>2020-09-05T17:05:48Z</time>
      </trkpt>
      <trkpt lat="47.93149" lon="1.98952">
        <ele>126</ele>
        <time>2020-09-05T17:06:11Z</time>
      </trkpt>
      <trkpt lat="47.93146" lon="1.98946">
        <ele>126</ele>
        <time>2020-09-05T17:06:12Z</time>
      </trkpt>
      <trkpt lat="47.9314" lon="1.98946">
        <ele>126</ele>
        <time>2020-09-05T17:06:13Z</time>
      </trkpt>
      <trkpt lat="47.93132" lon="1.98936">
        <ele>126</ele>
        <time>2020-09-05T17:06:16Z</time>
      </trkpt>
      <trkpt lat="47.92904" lon="1.98722">
        <ele>122</ele>
        <time>2020-09-05T17:07:19Z</time>
      </trkpt>
      <trkpt lat="47.92607" lon="1.9845">
        <ele>118</ele>
        <time>2020-09-05T17:08:40Z</time>
      </trkpt>
      <trkpt lat="47.92531" lon="1.98376">
        <ele>114</ele>
        <time>2020-09-05T17:09:01Z</time>
      </trkpt>
      <trkpt lat="47.92532" lon="1.98365">
        <ele>114</ele>
        <time>2020-09-05T17:09:03Z</time>
      </trkpt>
      <trkpt lat="47.92512" lon="1.98197">
        <ele>114</ele>
        <time>2020-09-05T17:09:30Z</time>
      </trkpt>
      <trkpt lat="47.92511" lon="1.98157">
        <ele>114</ele>
        <time>2020-09-05T17:09:36Z</time>
      </trkpt>
      <trkpt lat="47.9249" lon="1.98046">
        <ele>111</ele>
        <time>2020-09-05T17:09:54Z</time>
      </trkpt>
      <trkpt lat="47.92458" lon="1.97851">
        <ele>112</ele>
        <time>2020-09-05T17:10:25Z</time>
      </trkpt>
      <trkpt lat="47.9244" lon="1.97691">
        <ele>114</ele>
        <time>2020-09-05T17:10:51Z</time>
      </trkpt>
      <trkpt lat="47.92436" lon="1.97605">
        <ele>114</ele>
        <time>2020-09-05T17:11:04Z</time>
      </trkpt>
      <trkpt lat="47.92435" lon="1.97488">
        <ele>115</ele>
        <time>2020-09-05T17:11:23Z</time>
      </trkpt>
      <trkpt lat="47.92446" lon="1.9727">
        <ele>114</ele>
        <time>2020-09-05T17:11:57Z</time>
      </trkpt>
      <trkpt lat="47.92452" lon="1.97257">
        <ele>114</ele>
        <time>2020-09-05T17:11:59Z</time>
      </trkpt>
      <trkpt lat="47.92386" lon="1.97118">
        <ele>114</ele>
        <time>2020-09-05T17:12:26Z</time>
      </trkpt>
      <trkpt lat="47.92382" lon="1.9712">
        <ele>114</ele>
        <time>2020-09-05T17:12:27Z</time>
      </trkpt>
      <trkpt lat="47.92373" lon="1.97118">
        <ele>113</ele>
        <time>2020-09-05T17:12:29Z</time>
      </trkpt>
      <trkpt lat="47.9237" lon="1.9712">
        <ele>113</ele>
        <time>2020-09-05T17:12:30Z</time>
      </trkpt>
      <trkpt lat="47.92366" lon="1.97114">
        <ele>113</ele>
        <time>2020-09-05T17:12:31Z</time>
      </trkpt>
      <trkpt lat="47.92364" lon="1.97108">
        <ele>113</ele>
        <time>2020-09-05T17:12:32Z</time>
      </trkpt>
      <trkpt lat="47.92366" lon="1.97088">
        <ele>113</ele>
        <time>2020-09-05T17:12:35Z</time>
      </trkpt>
      <trkpt lat="47.92364" lon="1.9708">
        <ele>113</ele>
        <time>2020-09-05T17:12:37Z</time>
      </trkpt>
      <trkpt lat="47.92241" lon="1.96821">
        <ele>114</ele>
        <time>2020-09-05T17:13:26Z</time>
      </trkpt>
      <trkpt lat="47.92188" lon="1.96704">
        <ele>113</ele>
        <time>2020-09-05T17:13:49Z</time>
      </trkpt>
      <trkpt lat="47.92139" lon="1.96618">
        <ele>113</ele>
        <time>2020-09-05T17:14:06Z</time>
      </trkpt>
      <trkpt lat="47.92103" lon="1.96566">
        <ele>112</ele>
        <time>2020-09-05T17:14:18Z</time>
      </trkpt>
      <trkpt lat="47.92058" lon="1.9651">
        <ele>112</ele>
        <time>2020-09-05T17:14:32Z</time>
      </trkpt>
      <trkpt lat="47.92047" lon="1.965">
        <ele>112</ele>
        <time>2020-09-05T17:14:35Z</time>
      </trkpt>
      <trkpt lat="47.91965" lon="1.96443">
        <ele>111</ele>
        <time>2020-09-05T17:14:56Z</time>
      </trkpt>
      <trkpt lat="47.91961" lon="1.96444">
        <ele>111</ele>
        <time>2020-09-05T17:14:57Z</time>
      </trkpt>
      <trkpt lat="47.91952" lon="1.96439">
        <ele>110</ele>
        <time>2020-09-05T17:14:59Z</time>
      </trkpt>
      <trkpt lat="47.91943" lon="1.96428">
        <ele>110</ele>
        <time>2020-09-05T17:15:02Z</time>
      </trkpt>
      <trkpt lat="47.91899" lon="1.96399">
        <ele>109</ele>
        <time>2020-09-05T17:15:13Z</time>
      </trkpt>
      <trkpt lat="47.91895" lon="1.964">
        <ele>109</ele>
        <time>2020-09-05T17:15:14Z</time>
      </trkpt>
      <trkpt lat="47.91887" lon="1.96391">
        <ele>110</ele>
        <time>2020-09-05T17:15:16Z</time>
      </trkpt>
      <trkpt lat="47.91769" lon="1.96315">
        <ele>109</ele>
        <time>2020-09-05T17:15:46Z</time>
      </trkpt>
      <trkpt lat="47.91767" lon="1.96311">
        <ele>109</ele>
        <time>2020-09-05T17:15:47Z</time>
      </trkpt>
      <trkpt lat="47.91771" lon="1.96297">
        <ele>109</ele>
        <time>2020-09-05T17:15:49Z</time>
      </trkpt>
      <trkpt lat="47.91745" lon="1.96276">
        <ele>109</ele>
        <time>2020-09-05T17:15:56Z</time>
      </trkpt>
      <trkpt lat="47.91722" lon="1.9624">
        <ele>109</ele>
        <time>2020-09-05T17:16:04Z</time>
      </trkpt>
      <trkpt lat="47.91725" lon="1.96223">
        <ele>109</ele>
        <time>2020-09-05T17:16:07Z</time>
      </trkpt>
      <trkpt lat="47.91729" lon="1.96218">
        <ele>109</ele>
        <time>2020-09-05T17:16:08Z</time>
      </trkpt>
      <trkpt lat="47.91724" lon="1.96207">
        <ele>109</ele>
        <time>2020-09-05T17:16:10Z</time>
      </trkpt>
      <trkpt lat="47.91719" lon="1.96211">
        <ele>109</ele>
        <time>2020-09-05T17:16:11Z</time>
      </trkpt>
      <trkpt lat="47.91714" lon="1.96209">
        <ele>109</ele>
        <time>2020-09-05T17:16:13Z</time>
      </trkpt>
      <trkpt lat="47.91706" lon="1.96215">
        <ele>110</ele>
        <time>2020-09-05T17:16:15Z</time>
      </trkpt>
      <trkpt lat="47.91694" lon="1.96232">
        <ele>110</ele>
        <time>2020-09-05T17:16:19Z</time>
      </trkpt>
      <trkpt lat="47.91655" lon="1.96255">
        <ele>110</ele>
        <time>2020-09-05T17:16:28Z</time>
      </trkpt>
      <trkpt lat="47.91653" lon="1.96269">
        <ele>110</ele>
        <time>2020-09-05T17:16:31Z</time>
      </trkpt>
      <trkpt lat="47.91621" lon="1.96243">
        <ele>111</ele>
        <time>2020-09-05T17:16:39Z</time>
      </trkpt>
      <trkpt lat="47.91602" lon="1.96239">
        <ele>111</ele>
        <time>2020-09-05T17:16:44Z</time>
      </trkpt>
      <trkpt lat="47.91602" lon="1.96232">
        <ele>111</ele>
        <time>2020-09-05T17:16:45Z</time>
      </trkpt>
      <trkpt lat="47.91571" lon="1.96243">
        <ele>111</ele>
        <time>2020-09-05T17:16:52Z</time>
      </trkpt>
      <trkpt lat="47.91544" lon="1.96159">
        <ele>110</ele>
        <time>2020-09-05T17:17:07Z</time>
      </trkpt>
      <trkpt lat="47.91519" lon="1.96178">
        <ele>111</ele>
        <time>2020-09-05T17:17:13Z</time>
      </trkpt>
      <trkpt lat="47.91479" lon="1.96066">
        <ele>109</ele>
        <time>2020-09-05T17:17:33Z</time>
      </trkpt>
      <trkpt lat="47.91421" lon="1.96109">
        <ele>109</ele>
        <time>2020-09-05T17:17:48Z</time>
      </trkpt>
      <trkpt lat="47.91425" lon="1.9612">
        <ele>109</ele>
        <time>2020-09-05T17:17:50Z</time>
      </trkpt>
      <trkpt lat="47.91406" lon="1.96141">
        <ele>109</ele>
        <time>2020-09-05T17:17:56Z</time>
      </trkpt>
      <trkpt lat="47.91394" lon="1.96144">
        <ele>109</ele>
        <time>2020-09-05T17:17:59Z</time>
      </trkpt>
      <trkpt lat="47.91359" lon="1.96168">
        <ele>109</ele>
        <time>2020-09-05T17:18:08Z</time>
      </trkpt>
      <trkpt lat="47.91351" lon="1.96132">
        <ele>109</ele>
        <time>2020-09-05T17:18:13Z</time>
      </trkpt>
      <trkpt lat="47.91319" lon="1.96152">
        <ele>109</ele>
        <time>2020-09-05T17:18:22Z</time>
      </trkpt>
      <trkpt lat="47.91298" lon="1.96158">
        <ele>109</ele>
        <time>2020-09-05T17:18:27Z</time>
      </trkpt>
      <trkpt lat="47.91262" lon="1.96164">
        <ele>109</ele>
        <time>2020-09-05T17:18:35Z</time>
      </trkpt>
      <trkpt lat="47.91253" lon="1.96165">
        <ele>109</ele>
        <time>2020-09-05T17:18:37Z</time>
      </trkpt>
      <trkpt lat="47.91237" lon="1.9616">
        <ele>109</ele>
        <time>2020-09-05T17:18:41Z</time>
      </trkpt>
      <trkpt lat="47.91222" lon="1.9616">
        <ele>109</ele>
        <time>2020-09-05T17:18:44Z</time>
      </trkpt>
      <trkpt lat="47.9121" lon="1.96161">
        <ele>109</ele>
        <time>2020-09-05T17:18:47Z</time>
      </trkpt>
      <trkpt lat="47.91192" lon="1.96169">
        <ele>109</ele>
        <time>2020-09-05T17:18:52Z</time>
      </trkpt>
      <trkpt lat="47.91125" lon="1.96171">
        <ele>109</ele>
        <time>2020-09-05T17:19:07Z</time>
      </trkpt>
      <trkpt lat="47.91123" lon="1.96161">
        <ele>109</ele>
        <time>2020-09-05T17:19:09Z</time>
      </trkpt>
      <trkpt lat="47.91121" lon="1.96161">
        <ele>109</ele>
        <time>2020-09-05T17:19:09Z</time>
      </trkpt>
    </trkseg>
  </trk>
</gpx>